<?xml version="1.0" encoding="UTF-8" standalone="no" ?>
<gpx xmlns="http://www.topografix.com/GPX/1/1" xmlns:xsi="http://www.w3.org/2001/XMLSchema-instance" xsi:schemaLocation="http://www.topografix.com/GPX/1/1 http://www.topografix.com/GPX/1/1/gpx.xsd" version="1.1" creator="VisuGPX - https://www.visugpx.com">
  <metadata>
    <name>Caudebronde - entre sources et lauzes</name>
    <desc><![CDATA[Randonnée en Montagne Noire au départ du discret village de Caudebronde.]]></desc>
  </metadata>
  <trk>
    <name><![CDATA[15 B Caudebronde]]></name>
    <trkseg>
      <trkpt lat="43.37773" lon="2.30995">
        <ele>520.69</ele>
        <time>2016-06-09T12:05:04Z</time>
      </trkpt>
      <trkpt lat="43.37775" lon="2.30984">
        <ele>521.17</ele>
        <time>2016-06-09T12:05:40Z</time>
      </trkpt>
      <trkpt lat="43.37772" lon="2.3097">
        <ele>521.17</ele>
        <time>2016-06-09T12:05:49Z</time>
      </trkpt>
      <trkpt lat="43.37777" lon="2.30959">
        <ele>521.17</ele>
        <time>2016-06-09T12:05:57Z</time>
      </trkpt>
      <trkpt lat="43.37786" lon="2.30958">
        <ele>522.61</ele>
        <time>2016-06-09T12:06:08Z</time>
      </trkpt>
      <trkpt lat="43.37798" lon="2.30953">
        <ele>524.06</ele>
        <time>2016-06-09T12:06:30Z</time>
      </trkpt>
      <trkpt lat="43.37809" lon="2.30953">
        <ele>525.5</ele>
        <time>2016-06-09T12:06:40Z</time>
      </trkpt>
      <trkpt lat="43.37818" lon="2.30953">
        <ele>526.46</ele>
        <time>2016-06-09T12:06:50Z</time>
      </trkpt>
      <trkpt lat="43.37828" lon="2.30954">
        <ele>526.46</ele>
        <time>2016-06-09T12:07:02Z</time>
      </trkpt>
      <trkpt lat="43.37837" lon="2.30945">
        <ele>526.46</ele>
        <time>2016-06-09T12:07:20Z</time>
      </trkpt>
      <trkpt lat="43.37845" lon="2.30937">
        <ele>527.42</ele>
        <time>2016-06-09T12:07:29Z</time>
      </trkpt>
      <trkpt lat="43.37853" lon="2.30927">
        <ele>527.9</ele>
        <time>2016-06-09T12:07:39Z</time>
      </trkpt>
      <trkpt lat="43.37859" lon="2.30917">
        <ele>528.38</ele>
        <time>2016-06-09T12:07:48Z</time>
      </trkpt>
      <trkpt lat="43.37865" lon="2.30906">
        <ele>529.34</ele>
        <time>2016-06-09T12:07:57Z</time>
      </trkpt>
      <trkpt lat="43.37872" lon="2.30897">
        <ele>529.34</ele>
        <time>2016-06-09T12:08:08Z</time>
      </trkpt>
      <trkpt lat="43.37879" lon="2.3089">
        <ele>529.82</ele>
        <time>2016-06-09T12:08:16Z</time>
      </trkpt>
      <trkpt lat="43.37888" lon="2.30883">
        <ele>530.3</ele>
        <time>2016-06-09T12:08:25Z</time>
      </trkpt>
      <trkpt lat="43.37897" lon="2.30876">
        <ele>530.79</ele>
        <time>2016-06-09T12:08:34Z</time>
      </trkpt>
      <trkpt lat="43.37906" lon="2.30872">
        <ele>531.27</ele>
        <time>2016-06-09T12:08:43Z</time>
      </trkpt>
      <trkpt lat="43.37916" lon="2.30867">
        <ele>531.75</ele>
        <time>2016-06-09T12:08:54Z</time>
      </trkpt>
      <trkpt lat="43.37927" lon="2.30862">
        <ele>532.71</ele>
        <time>2016-06-09T12:09:03Z</time>
      </trkpt>
      <trkpt lat="43.37937" lon="2.30856">
        <ele>533.19</ele>
        <time>2016-06-09T12:09:12Z</time>
      </trkpt>
      <trkpt lat="43.37944" lon="2.30847">
        <ele>533.19</ele>
        <time>2016-06-09T12:09:21Z</time>
      </trkpt>
      <trkpt lat="43.37956" lon="2.3084">
        <ele>533.67</ele>
        <time>2016-06-09T12:09:31Z</time>
      </trkpt>
      <trkpt lat="43.37967" lon="2.30835">
        <ele>534.63</ele>
        <time>2016-06-09T12:09:41Z</time>
      </trkpt>
      <trkpt lat="43.37978" lon="2.30831">
        <ele>535.11</ele>
        <time>2016-06-09T12:09:50Z</time>
      </trkpt>
      <trkpt lat="43.3799" lon="2.3083">
        <ele>535.59</ele>
        <time>2016-06-09T12:09:59Z</time>
      </trkpt>
      <trkpt lat="43.38002" lon="2.30832">
        <ele>536.55</ele>
        <time>2016-06-09T12:10:09Z</time>
      </trkpt>
      <trkpt lat="43.38013" lon="2.30834">
        <ele>536.55</ele>
        <time>2016-06-09T12:10:18Z</time>
      </trkpt>
      <trkpt lat="43.38024" lon="2.30838">
        <ele>537.03</ele>
        <time>2016-06-09T12:10:27Z</time>
      </trkpt>
      <trkpt lat="43.38033" lon="2.30844">
        <ele>537.99</ele>
        <time>2016-06-09T12:10:36Z</time>
      </trkpt>
      <trkpt lat="43.38042" lon="2.30853">
        <ele>538.48</ele>
        <time>2016-06-09T12:10:46Z</time>
      </trkpt>
      <trkpt lat="43.38052" lon="2.3086">
        <ele>539.44</ele>
        <time>2016-06-09T12:10:55Z</time>
      </trkpt>
      <trkpt lat="43.38062" lon="2.30868">
        <ele>539.44</ele>
        <time>2016-06-09T12:11:04Z</time>
      </trkpt>
      <trkpt lat="43.38072" lon="2.30876">
        <ele>540.4</ele>
        <time>2016-06-09T12:11:14Z</time>
      </trkpt>
      <trkpt lat="43.38081" lon="2.30881">
        <ele>540.4</ele>
        <time>2016-06-09T12:11:23Z</time>
      </trkpt>
      <trkpt lat="43.38092" lon="2.3089">
        <ele>540.88</ele>
        <time>2016-06-09T12:11:33Z</time>
      </trkpt>
      <trkpt lat="43.38102" lon="2.30898">
        <ele>541.84</ele>
        <time>2016-06-09T12:11:43Z</time>
      </trkpt>
      <trkpt lat="43.38112" lon="2.30905">
        <ele>542.32</ele>
        <time>2016-06-09T12:11:51Z</time>
      </trkpt>
      <trkpt lat="43.38122" lon="2.30917">
        <ele>543.28</ele>
        <time>2016-06-09T12:12:00Z</time>
      </trkpt>
      <trkpt lat="43.38131" lon="2.30927">
        <ele>543.76</ele>
        <time>2016-06-09T12:12:09Z</time>
      </trkpt>
      <trkpt lat="43.3814" lon="2.30935">
        <ele>544.24</ele>
        <time>2016-06-09T12:12:17Z</time>
      </trkpt>
      <trkpt lat="43.38149" lon="2.30944">
        <ele>544.24</ele>
        <time>2016-06-09T12:12:26Z</time>
      </trkpt>
      <trkpt lat="43.38154" lon="2.30955">
        <ele>544.72</ele>
        <time>2016-06-09T12:12:35Z</time>
      </trkpt>
      <trkpt lat="43.38161" lon="2.30956">
        <ele>545.69</ele>
        <time>2016-06-09T12:12:56Z</time>
      </trkpt>
      <trkpt lat="43.38169" lon="2.30957">
        <ele>546.65</ele>
        <time>2016-06-09T12:13:07Z</time>
      </trkpt>
      <trkpt lat="43.38181" lon="2.30957">
        <ele>547.61</ele>
        <time>2016-06-09T12:13:22Z</time>
      </trkpt>
      <trkpt lat="43.38193" lon="2.30961">
        <ele>549.53</ele>
        <time>2016-06-09T12:13:37Z</time>
      </trkpt>
      <trkpt lat="43.38205" lon="2.30961">
        <ele>551.45</ele>
        <time>2016-06-09T12:13:52Z</time>
      </trkpt>
      <trkpt lat="43.38219" lon="2.30966">
        <ele>554.34</ele>
        <time>2016-06-09T12:14:11Z</time>
      </trkpt>
      <trkpt lat="43.38232" lon="2.30969">
        <ele>556.74</ele>
        <time>2016-06-09T12:14:26Z</time>
      </trkpt>
      <trkpt lat="43.38247" lon="2.30971">
        <ele>561.07</ele>
        <time>2016-06-09T12:14:52Z</time>
      </trkpt>
      <trkpt lat="43.38268" lon="2.30958">
        <ele>567.32</ele>
        <time>2016-06-09T12:15:28Z</time>
      </trkpt>
      <trkpt lat="43.38285" lon="2.30943">
        <ele>574.04</ele>
        <time>2016-06-09T12:17:17Z</time>
      </trkpt>
      <trkpt lat="43.38309" lon="2.3093">
        <ele>582.7</ele>
        <time>2016-06-09T12:18:00Z</time>
      </trkpt>
      <trkpt lat="43.38322" lon="2.3093">
        <ele>585.58</ele>
        <time>2016-06-09T12:18:15Z</time>
      </trkpt>
      <trkpt lat="43.38334" lon="2.30932">
        <ele>587.5</ele>
        <time>2016-06-09T12:18:30Z</time>
      </trkpt>
      <trkpt lat="43.38352" lon="2.30936">
        <ele>590.39</ele>
        <time>2016-06-09T12:18:52Z</time>
      </trkpt>
      <trkpt lat="43.38364" lon="2.3094">
        <ele>592.31</ele>
        <time>2016-06-09T12:19:07Z</time>
      </trkpt>
      <trkpt lat="43.38376" lon="2.30936">
        <ele>594.71</ele>
        <time>2016-06-09T12:19:24Z</time>
      </trkpt>
      <trkpt lat="43.38397" lon="2.3092">
        <ele>599.52</ele>
        <time>2016-06-09T12:19:56Z</time>
      </trkpt>
      <trkpt lat="43.38412" lon="2.30912">
        <ele>601.92</ele>
        <time>2016-06-09T12:20:17Z</time>
      </trkpt>
      <trkpt lat="43.38424" lon="2.30905">
        <ele>603.36</ele>
        <time>2016-06-09T12:20:31Z</time>
      </trkpt>
      <trkpt lat="43.38439" lon="2.30892">
        <ele>606.25</ele>
        <time>2016-06-09T12:20:51Z</time>
      </trkpt>
      <trkpt lat="43.38457" lon="2.30882">
        <ele>609.61</ele>
        <time>2016-06-09T12:21:15Z</time>
      </trkpt>
      <trkpt lat="43.38465" lon="2.30876">
        <ele>611.54</ele>
        <time>2016-06-09T12:21:29Z</time>
      </trkpt>
      <trkpt lat="43.38477" lon="2.30867">
        <ele>612.02</ele>
        <time>2016-06-09T12:21:44Z</time>
      </trkpt>
      <trkpt lat="43.3849" lon="2.30857">
        <ele>613.46</ele>
        <time>2016-06-09T12:21:58Z</time>
      </trkpt>
      <trkpt lat="43.38506" lon="2.30851">
        <ele>614.9</ele>
        <time>2016-06-09T12:22:14Z</time>
      </trkpt>
      <trkpt lat="43.38521" lon="2.30842">
        <ele>615.86</ele>
        <time>2016-06-09T12:22:28Z</time>
      </trkpt>
      <trkpt lat="43.38534" lon="2.30836">
        <ele>616.82</ele>
        <time>2016-06-09T12:22:41Z</time>
      </trkpt>
      <trkpt lat="43.38548" lon="2.3083">
        <ele>618.26</ele>
        <time>2016-06-09T12:22:57Z</time>
      </trkpt>
      <trkpt lat="43.38559" lon="2.30821">
        <ele>619.23</ele>
        <time>2016-06-09T12:23:09Z</time>
      </trkpt>
      <trkpt lat="43.38572" lon="2.30812">
        <ele>621.15</ele>
        <time>2016-06-09T12:23:22Z</time>
      </trkpt>
      <trkpt lat="43.38587" lon="2.30805">
        <ele>623.55</ele>
        <time>2016-06-09T12:23:38Z</time>
      </trkpt>
      <trkpt lat="43.38599" lon="2.30794">
        <ele>624.51</ele>
        <time>2016-06-09T12:23:53Z</time>
      </trkpt>
      <trkpt lat="43.38613" lon="2.30786">
        <ele>626.44</ele>
        <time>2016-06-09T12:24:09Z</time>
      </trkpt>
      <trkpt lat="43.38629" lon="2.30776">
        <ele>628.36</ele>
        <time>2016-06-09T12:24:24Z</time>
      </trkpt>
      <trkpt lat="43.38641" lon="2.3077">
        <ele>629.32</ele>
        <time>2016-06-09T12:24:37Z</time>
      </trkpt>
      <trkpt lat="43.38652" lon="2.30767">
        <ele>629.8</ele>
        <time>2016-06-09T12:24:50Z</time>
      </trkpt>
      <trkpt lat="43.38663" lon="2.30764">
        <ele>630.76</ele>
        <time>2016-06-09T12:25:00Z</time>
      </trkpt>
      <trkpt lat="43.38673" lon="2.30757">
        <ele>631.24</ele>
        <time>2016-06-09T12:25:09Z</time>
      </trkpt>
      <trkpt lat="43.38684" lon="2.3075">
        <ele>631.72</ele>
        <time>2016-06-09T12:25:19Z</time>
      </trkpt>
      <trkpt lat="43.38693" lon="2.30743">
        <ele>631.72</ele>
        <time>2016-06-09T12:25:28Z</time>
      </trkpt>
      <trkpt lat="43.38706" lon="2.30735">
        <ele>632.2</ele>
        <time>2016-06-09T12:25:43Z</time>
      </trkpt>
      <trkpt lat="43.38722" lon="2.30717">
        <ele>633.65</ele>
        <time>2016-06-09T12:26:26Z</time>
      </trkpt>
      <trkpt lat="43.38731" lon="2.30701">
        <ele>634.61</ele>
        <time>2016-06-09T12:26:39Z</time>
      </trkpt>
      <trkpt lat="43.38734" lon="2.30682">
        <ele>636.53</ele>
        <time>2016-06-09T12:26:52Z</time>
      </trkpt>
      <trkpt lat="43.38735" lon="2.30663">
        <ele>638.93</ele>
        <time>2016-06-09T12:27:07Z</time>
      </trkpt>
      <trkpt lat="43.38735" lon="2.30642">
        <ele>640.38</ele>
        <time>2016-06-09T12:27:23Z</time>
      </trkpt>
      <trkpt lat="43.38736" lon="2.30625">
        <ele>640.38</ele>
        <time>2016-06-09T12:27:35Z</time>
      </trkpt>
      <trkpt lat="43.38738" lon="2.30607">
        <ele>640.86</ele>
        <time>2016-06-09T12:27:47Z</time>
      </trkpt>
      <trkpt lat="43.3874" lon="2.30588">
        <ele>640.86</ele>
        <time>2016-06-09T12:28:01Z</time>
      </trkpt>
      <trkpt lat="43.38742" lon="2.30569">
        <ele>639.41</ele>
        <time>2016-06-09T12:28:13Z</time>
      </trkpt>
      <trkpt lat="43.38747" lon="2.3055">
        <ele>639.41</ele>
        <time>2016-06-09T12:28:24Z</time>
      </trkpt>
      <trkpt lat="43.38752" lon="2.30531">
        <ele>639.41</ele>
        <time>2016-06-09T12:28:38Z</time>
      </trkpt>
      <trkpt lat="43.38756" lon="2.30512">
        <ele>639.41</ele>
        <time>2016-06-09T12:28:49Z</time>
      </trkpt>
      <trkpt lat="43.38763" lon="2.30498">
        <ele>639.89</ele>
        <time>2016-06-09T12:29:00Z</time>
      </trkpt>
      <trkpt lat="43.38769" lon="2.3048">
        <ele>639.89</ele>
        <time>2016-06-09T12:29:11Z</time>
      </trkpt>
      <trkpt lat="43.38774" lon="2.30464">
        <ele>641.82</ele>
        <time>2016-06-09T12:29:23Z</time>
      </trkpt>
      <trkpt lat="43.38781" lon="2.30447">
        <ele>643.74</ele>
        <time>2016-06-09T12:29:45Z</time>
      </trkpt>
      <trkpt lat="43.38785" lon="2.30426">
        <ele>644.7</ele>
        <time>2016-06-09T12:30:10Z</time>
      </trkpt>
      <trkpt lat="43.38781" lon="2.30423">
        <ele>647.59</ele>
        <time>2016-06-09T12:35:48Z</time>
      </trkpt>
      <trkpt lat="43.38774" lon="2.30434">
        <ele>650.47</ele>
        <time>2016-06-09T12:36:03Z</time>
      </trkpt>
      <trkpt lat="43.38767" lon="2.30447">
        <ele>651.91</ele>
        <time>2016-06-09T12:36:15Z</time>
      </trkpt>
      <trkpt lat="43.38759" lon="2.3046">
        <ele>652.87</ele>
        <time>2016-06-09T12:36:27Z</time>
      </trkpt>
      <trkpt lat="43.3875" lon="2.30473">
        <ele>653.83</ele>
        <time>2016-06-09T12:36:40Z</time>
      </trkpt>
      <trkpt lat="43.38743" lon="2.30489">
        <ele>655.76</ele>
        <time>2016-06-09T12:36:54Z</time>
      </trkpt>
      <trkpt lat="43.38734" lon="2.30503">
        <ele>657.68</ele>
        <time>2016-06-09T12:37:08Z</time>
      </trkpt>
      <trkpt lat="43.38726" lon="2.30521">
        <ele>660.08</ele>
        <time>2016-06-09T12:37:25Z</time>
      </trkpt>
      <trkpt lat="43.3872" lon="2.30536">
        <ele>661.52</ele>
        <time>2016-06-09T12:37:38Z</time>
      </trkpt>
      <trkpt lat="43.3871" lon="2.30552">
        <ele>663.45</ele>
        <time>2016-06-09T12:37:50Z</time>
      </trkpt>
      <trkpt lat="43.38702" lon="2.3057">
        <ele>664.89</ele>
        <time>2016-06-09T12:38:02Z</time>
      </trkpt>
      <trkpt lat="43.38695" lon="2.30588">
        <ele>666.33</ele>
        <time>2016-06-09T12:38:15Z</time>
      </trkpt>
      <trkpt lat="43.38687" lon="2.30602">
        <ele>667.77</ele>
        <time>2016-06-09T12:38:27Z</time>
      </trkpt>
      <trkpt lat="43.38681" lon="2.30615">
        <ele>669.7</ele>
        <time>2016-06-09T12:39:05Z</time>
      </trkpt>
      <trkpt lat="43.3867" lon="2.30627">
        <ele>671.14</ele>
        <time>2016-06-09T12:39:22Z</time>
      </trkpt>
      <trkpt lat="43.38661" lon="2.30634">
        <ele>672.1</ele>
        <time>2016-06-09T12:39:35Z</time>
      </trkpt>
      <trkpt lat="43.38644" lon="2.3064">
        <ele>674.5</ele>
        <time>2016-06-09T12:41:00Z</time>
      </trkpt>
      <trkpt lat="43.38633" lon="2.30643">
        <ele>676.42</ele>
        <time>2016-06-09T12:41:38Z</time>
      </trkpt>
      <trkpt lat="43.38623" lon="2.30646">
        <ele>677.39</ele>
        <time>2016-06-09T12:41:48Z</time>
      </trkpt>
      <trkpt lat="43.38611" lon="2.30648">
        <ele>679.31</ele>
        <time>2016-06-09T12:41:59Z</time>
      </trkpt>
      <trkpt lat="43.38599" lon="2.30651">
        <ele>680.75</ele>
        <time>2016-06-09T12:42:09Z</time>
      </trkpt>
      <trkpt lat="43.38588" lon="2.30656">
        <ele>680.75</ele>
        <time>2016-06-09T12:42:20Z</time>
      </trkpt>
      <trkpt lat="43.38576" lon="2.3066">
        <ele>680.75</ele>
        <time>2016-06-09T12:42:31Z</time>
      </trkpt>
      <trkpt lat="43.38565" lon="2.30665">
        <ele>680.75</ele>
        <time>2016-06-09T12:42:41Z</time>
      </trkpt>
      <trkpt lat="43.38553" lon="2.30669">
        <ele>680.75</ele>
        <time>2016-06-09T12:42:51Z</time>
      </trkpt>
      <trkpt lat="43.38541" lon="2.30672">
        <ele>679.31</ele>
        <time>2016-06-09T12:43:01Z</time>
      </trkpt>
      <trkpt lat="43.38528" lon="2.30674">
        <ele>679.31</ele>
        <time>2016-06-09T12:43:11Z</time>
      </trkpt>
      <trkpt lat="43.38515" lon="2.30678">
        <ele>678.83</ele>
        <time>2016-06-09T12:43:22Z</time>
      </trkpt>
      <trkpt lat="43.38502" lon="2.30682">
        <ele>679.31</ele>
        <time>2016-06-09T12:43:32Z</time>
      </trkpt>
      <trkpt lat="43.3849" lon="2.30686">
        <ele>678.83</ele>
        <time>2016-06-09T12:43:41Z</time>
      </trkpt>
      <trkpt lat="43.38477" lon="2.30691">
        <ele>677.87</ele>
        <time>2016-06-09T12:43:55Z</time>
      </trkpt>
      <trkpt lat="43.38464" lon="2.30693">
        <ele>677.39</ele>
        <time>2016-06-09T12:44:05Z</time>
      </trkpt>
      <trkpt lat="43.38452" lon="2.30698">
        <ele>677.39</ele>
        <time>2016-06-09T12:44:15Z</time>
      </trkpt>
      <trkpt lat="43.3844" lon="2.30701">
        <ele>677.39</ele>
        <time>2016-06-09T12:44:24Z</time>
      </trkpt>
      <trkpt lat="43.38426" lon="2.30704">
        <ele>677.39</ele>
        <time>2016-06-09T12:44:35Z</time>
      </trkpt>
      <trkpt lat="43.38412" lon="2.30706">
        <ele>677.39</ele>
        <time>2016-06-09T12:44:45Z</time>
      </trkpt>
      <trkpt lat="43.38399" lon="2.30706">
        <ele>677.39</ele>
        <time>2016-06-09T12:44:55Z</time>
      </trkpt>
      <trkpt lat="43.38386" lon="2.30704">
        <ele>677.39</ele>
        <time>2016-06-09T12:45:04Z</time>
      </trkpt>
      <trkpt lat="43.38375" lon="2.307">
        <ele>678.83</ele>
        <time>2016-06-09T12:45:13Z</time>
      </trkpt>
      <trkpt lat="43.38365" lon="2.30693">
        <ele>679.79</ele>
        <time>2016-06-09T12:45:21Z</time>
      </trkpt>
      <trkpt lat="43.38356" lon="2.30683">
        <ele>681.71</ele>
        <time>2016-06-09T12:45:31Z</time>
      </trkpt>
      <trkpt lat="43.38347" lon="2.30674">
        <ele>682.19</ele>
        <time>2016-06-09T12:45:42Z</time>
      </trkpt>
      <trkpt lat="43.38338" lon="2.30662">
        <ele>683.15</ele>
        <time>2016-06-09T12:45:53Z</time>
      </trkpt>
      <trkpt lat="43.3833" lon="2.3065">
        <ele>684.6</ele>
        <time>2016-06-09T12:46:04Z</time>
      </trkpt>
      <trkpt lat="43.38324" lon="2.30637">
        <ele>686.04</ele>
        <time>2016-06-09T12:46:14Z</time>
      </trkpt>
      <trkpt lat="43.38318" lon="2.30624">
        <ele>687</ele>
        <time>2016-06-09T12:46:24Z</time>
      </trkpt>
      <trkpt lat="43.38313" lon="2.3061">
        <ele>687.96</ele>
        <time>2016-06-09T12:46:33Z</time>
      </trkpt>
      <trkpt lat="43.38307" lon="2.30599">
        <ele>688.44</ele>
        <time>2016-06-09T12:46:42Z</time>
      </trkpt>
      <trkpt lat="43.38302" lon="2.30588">
        <ele>690.36</ele>
        <time>2016-06-09T12:46:52Z</time>
      </trkpt>
      <trkpt lat="43.38293" lon="2.3058">
        <ele>691.33</ele>
        <time>2016-06-09T12:47:02Z</time>
      </trkpt>
      <trkpt lat="43.38286" lon="2.30571">
        <ele>692.77</ele>
        <time>2016-06-09T12:47:12Z</time>
      </trkpt>
      <trkpt lat="43.38277" lon="2.30564">
        <ele>694.69</ele>
        <time>2016-06-09T12:47:22Z</time>
      </trkpt>
      <trkpt lat="43.38268" lon="2.30557">
        <ele>696.61</ele>
        <time>2016-06-09T12:47:32Z</time>
      </trkpt>
      <trkpt lat="43.38258" lon="2.30548">
        <ele>698.53</ele>
        <time>2016-06-09T12:47:45Z</time>
      </trkpt>
      <trkpt lat="43.38249" lon="2.30539">
        <ele>699.98</ele>
        <time>2016-06-09T12:47:55Z</time>
      </trkpt>
      <trkpt lat="43.38241" lon="2.30529">
        <ele>700.46</ele>
        <time>2016-06-09T12:48:05Z</time>
      </trkpt>
      <trkpt lat="43.38231" lon="2.3052">
        <ele>700.94</ele>
        <time>2016-06-09T12:48:14Z</time>
      </trkpt>
      <trkpt lat="43.3822" lon="2.30516">
        <ele>701.42</ele>
        <time>2016-06-09T12:48:23Z</time>
      </trkpt>
      <trkpt lat="43.38211" lon="2.3051">
        <ele>701.9</ele>
        <time>2016-06-09T12:48:31Z</time>
      </trkpt>
      <trkpt lat="43.38202" lon="2.30502">
        <ele>702.86</ele>
        <time>2016-06-09T12:48:39Z</time>
      </trkpt>
      <trkpt lat="43.38195" lon="2.30492">
        <ele>702.86</ele>
        <time>2016-06-09T12:48:48Z</time>
      </trkpt>
      <trkpt lat="43.38199" lon="2.30483">
        <ele>703.82</ele>
        <time>2016-06-09T12:49:03Z</time>
      </trkpt>
      <trkpt lat="43.38209" lon="2.30482">
        <ele>705.26</ele>
        <time>2016-06-09T12:49:13Z</time>
      </trkpt>
      <trkpt lat="43.38218" lon="2.30485">
        <ele>705.75</ele>
        <time>2016-06-09T12:49:23Z</time>
      </trkpt>
      <trkpt lat="43.38229" lon="2.30487">
        <ele>707.67</ele>
        <time>2016-06-09T12:49:33Z</time>
      </trkpt>
      <trkpt lat="43.38238" lon="2.30487">
        <ele>708.63</ele>
        <time>2016-06-09T12:49:44Z</time>
      </trkpt>
      <trkpt lat="43.38248" lon="2.30483">
        <ele>710.07</ele>
        <time>2016-06-09T12:49:56Z</time>
      </trkpt>
      <trkpt lat="43.3826" lon="2.30475">
        <ele>711.99</ele>
        <time>2016-06-09T12:50:08Z</time>
      </trkpt>
      <trkpt lat="43.3827" lon="2.3047">
        <ele>714.88</ele>
        <time>2016-06-09T12:50:20Z</time>
      </trkpt>
      <trkpt lat="43.38279" lon="2.30467">
        <ele>716.32</ele>
        <time>2016-06-09T12:50:31Z</time>
      </trkpt>
      <trkpt lat="43.38289" lon="2.30467">
        <ele>718.24</ele>
        <time>2016-06-09T12:50:42Z</time>
      </trkpt>
      <trkpt lat="43.38299" lon="2.30469">
        <ele>718.72</ele>
        <time>2016-06-09T12:50:53Z</time>
      </trkpt>
      <trkpt lat="43.38308" lon="2.30471">
        <ele>720.65</ele>
        <time>2016-06-09T12:51:03Z</time>
      </trkpt>
      <trkpt lat="43.38317" lon="2.30473">
        <ele>722.57</ele>
        <time>2016-06-09T12:51:14Z</time>
      </trkpt>
      <trkpt lat="43.38326" lon="2.30474">
        <ele>724.01</ele>
        <time>2016-06-09T12:51:28Z</time>
      </trkpt>
      <trkpt lat="43.38338" lon="2.30472">
        <ele>725.45</ele>
        <time>2016-06-09T12:51:43Z</time>
      </trkpt>
      <trkpt lat="43.38349" lon="2.30473">
        <ele>726.89</ele>
        <time>2016-06-09T12:51:55Z</time>
      </trkpt>
      <trkpt lat="43.3836" lon="2.30473">
        <ele>727.86</ele>
        <time>2016-06-09T12:52:08Z</time>
      </trkpt>
      <trkpt lat="43.3837" lon="2.30475">
        <ele>729.78</ele>
        <time>2016-06-09T12:52:21Z</time>
      </trkpt>
      <trkpt lat="43.38381" lon="2.30475">
        <ele>731.7</ele>
        <time>2016-06-09T12:52:35Z</time>
      </trkpt>
      <trkpt lat="43.38391" lon="2.30474">
        <ele>733.14</ele>
        <time>2016-06-09T12:52:47Z</time>
      </trkpt>
      <trkpt lat="43.38401" lon="2.30476">
        <ele>734.58</ele>
        <time>2016-06-09T12:53:01Z</time>
      </trkpt>
      <trkpt lat="43.38414" lon="2.30477">
        <ele>736.51</ele>
        <time>2016-06-09T12:53:15Z</time>
      </trkpt>
      <trkpt lat="43.38425" lon="2.30479">
        <ele>736.99</ele>
        <time>2016-06-09T12:53:28Z</time>
      </trkpt>
      <trkpt lat="43.38437" lon="2.30479">
        <ele>738.43</ele>
        <time>2016-06-09T12:53:40Z</time>
      </trkpt>
      <trkpt lat="43.3845" lon="2.30474">
        <ele>739.39</ele>
        <time>2016-06-09T12:53:51Z</time>
      </trkpt>
      <trkpt lat="43.38459" lon="2.30467">
        <ele>741.31</ele>
        <time>2016-06-09T12:54:02Z</time>
      </trkpt>
      <trkpt lat="43.38466" lon="2.30459">
        <ele>743.72</ele>
        <time>2016-06-09T12:54:12Z</time>
      </trkpt>
      <trkpt lat="43.38474" lon="2.30452">
        <ele>742.28</ele>
        <time>2016-06-09T12:54:23Z</time>
      </trkpt>
      <trkpt lat="43.38481" lon="2.30443">
        <ele>744.2</ele>
        <time>2016-06-09T12:54:35Z</time>
      </trkpt>
      <trkpt lat="43.38489" lon="2.30433">
        <ele>744.68</ele>
        <time>2016-06-09T12:54:45Z</time>
      </trkpt>
      <trkpt lat="43.38497" lon="2.30424">
        <ele>746.12</ele>
        <time>2016-06-09T12:54:54Z</time>
      </trkpt>
      <trkpt lat="43.38505" lon="2.30413">
        <ele>747.08</ele>
        <time>2016-06-09T12:55:04Z</time>
      </trkpt>
      <trkpt lat="43.38511" lon="2.30403">
        <ele>748.52</ele>
        <time>2016-06-09T12:55:13Z</time>
      </trkpt>
      <trkpt lat="43.3852" lon="2.30395">
        <ele>749</ele>
        <time>2016-06-09T12:55:23Z</time>
      </trkpt>
      <trkpt lat="43.38527" lon="2.30386">
        <ele>749.97</ele>
        <time>2016-06-09T12:55:32Z</time>
      </trkpt>
      <trkpt lat="43.38535" lon="2.30377">
        <ele>750.45</ele>
        <time>2016-06-09T12:55:41Z</time>
      </trkpt>
      <trkpt lat="43.38541" lon="2.30367">
        <ele>750.93</ele>
        <time>2016-06-09T12:55:50Z</time>
      </trkpt>
      <trkpt lat="43.38545" lon="2.30355">
        <ele>750.93</ele>
        <time>2016-06-09T12:55:59Z</time>
      </trkpt>
      <trkpt lat="43.38545" lon="2.30341">
        <ele>751.89</ele>
        <time>2016-06-09T12:56:08Z</time>
      </trkpt>
      <trkpt lat="43.38547" lon="2.30327">
        <ele>752.37</ele>
        <time>2016-06-09T12:56:17Z</time>
      </trkpt>
      <trkpt lat="43.3855" lon="2.30312">
        <ele>752.37</ele>
        <time>2016-06-09T12:56:26Z</time>
      </trkpt>
      <trkpt lat="43.38554" lon="2.30298">
        <ele>753.33</ele>
        <time>2016-06-09T12:56:34Z</time>
      </trkpt>
      <trkpt lat="43.38557" lon="2.30285">
        <ele>753.33</ele>
        <time>2016-06-09T12:56:43Z</time>
      </trkpt>
      <trkpt lat="43.38557" lon="2.30278">
        <ele>753.81</ele>
        <time>2016-06-09T12:57:14Z</time>
      </trkpt>
      <trkpt lat="43.38556" lon="2.30281">
        <ele>751.89</ele>
        <time>2016-06-09T12:58:09Z</time>
      </trkpt>
      <trkpt lat="43.38558" lon="2.30281">
        <ele>753.81</ele>
        <time>2016-06-09T12:59:27Z</time>
      </trkpt>
      <trkpt lat="43.3856" lon="2.30276">
        <ele>753.81</ele>
        <time>2016-06-09T13:00:14Z</time>
      </trkpt>
      <trkpt lat="43.38569" lon="2.30271">
        <ele>754.77</ele>
        <time>2016-06-09T13:00:25Z</time>
      </trkpt>
      <trkpt lat="43.38579" lon="2.30263">
        <ele>755.25</ele>
        <time>2016-06-09T13:00:44Z</time>
      </trkpt>
      <trkpt lat="43.38586" lon="2.30255">
        <ele>755.25</ele>
        <time>2016-06-09T13:00:52Z</time>
      </trkpt>
      <trkpt lat="43.38593" lon="2.30245">
        <ele>756.21</ele>
        <time>2016-06-09T13:01:01Z</time>
      </trkpt>
      <trkpt lat="43.38601" lon="2.30236">
        <ele>756.69</ele>
        <time>2016-06-09T13:01:20Z</time>
      </trkpt>
      <trkpt lat="43.38609" lon="2.30226">
        <ele>756.69</ele>
        <time>2016-06-09T13:01:30Z</time>
      </trkpt>
      <trkpt lat="43.38617" lon="2.30215">
        <ele>757.18</ele>
        <time>2016-06-09T13:01:40Z</time>
      </trkpt>
      <trkpt lat="43.38625" lon="2.30204">
        <ele>757.66</ele>
        <time>2016-06-09T13:01:50Z</time>
      </trkpt>
      <trkpt lat="43.38633" lon="2.30193">
        <ele>758.14</ele>
        <time>2016-06-09T13:02:01Z</time>
      </trkpt>
      <trkpt lat="43.38641" lon="2.30182">
        <ele>759.1</ele>
        <time>2016-06-09T13:02:10Z</time>
      </trkpt>
      <trkpt lat="43.38651" lon="2.30171">
        <ele>759.1</ele>
        <time>2016-06-09T13:02:20Z</time>
      </trkpt>
      <trkpt lat="43.3866" lon="2.30162">
        <ele>759.58</ele>
        <time>2016-06-09T13:02:30Z</time>
      </trkpt>
      <trkpt lat="43.3867" lon="2.30152">
        <ele>760.54</ele>
        <time>2016-06-09T13:02:40Z</time>
      </trkpt>
      <trkpt lat="43.3868" lon="2.30141">
        <ele>761.02</ele>
        <time>2016-06-09T13:02:50Z</time>
      </trkpt>
      <trkpt lat="43.38689" lon="2.30132">
        <ele>761.98</ele>
        <time>2016-06-09T13:03:01Z</time>
      </trkpt>
      <trkpt lat="43.38697" lon="2.3012">
        <ele>762.46</ele>
        <time>2016-06-09T13:03:11Z</time>
      </trkpt>
      <trkpt lat="43.38708" lon="2.3011">
        <ele>763.42</ele>
        <time>2016-06-09T13:03:22Z</time>
      </trkpt>
      <trkpt lat="43.38713" lon="2.30101">
        <ele>764.39</ele>
        <time>2016-06-09T13:03:53Z</time>
      </trkpt>
      <trkpt lat="43.38726" lon="2.30091">
        <ele>764.87</ele>
        <time>2016-06-09T13:04:04Z</time>
      </trkpt>
      <trkpt lat="43.38736" lon="2.30082">
        <ele>765.83</ele>
        <time>2016-06-09T13:04:15Z</time>
      </trkpt>
      <trkpt lat="43.38747" lon="2.30074">
        <ele>766.31</ele>
        <time>2016-06-09T13:04:25Z</time>
      </trkpt>
      <trkpt lat="43.38756" lon="2.30069">
        <ele>767.75</ele>
        <time>2016-06-09T13:04:36Z</time>
      </trkpt>
      <trkpt lat="43.38765" lon="2.3006">
        <ele>768.23</ele>
        <time>2016-06-09T13:04:46Z</time>
      </trkpt>
      <trkpt lat="43.38775" lon="2.30051">
        <ele>769.19</ele>
        <time>2016-06-09T13:04:57Z</time>
      </trkpt>
      <trkpt lat="43.38786" lon="2.30042">
        <ele>770.15</ele>
        <time>2016-06-09T13:05:06Z</time>
      </trkpt>
      <trkpt lat="43.38798" lon="2.3003">
        <ele>771.11</ele>
        <time>2016-06-09T13:05:16Z</time>
      </trkpt>
      <trkpt lat="43.38809" lon="2.3002">
        <ele>772.08</ele>
        <time>2016-06-09T13:05:26Z</time>
      </trkpt>
      <trkpt lat="43.38818" lon="2.30015">
        <ele>772.08</ele>
        <time>2016-06-09T13:05:38Z</time>
      </trkpt>
      <trkpt lat="43.38828" lon="2.30009">
        <ele>772.56</ele>
        <time>2016-06-09T13:05:48Z</time>
      </trkpt>
      <trkpt lat="43.38839" lon="2.30004">
        <ele>773.52</ele>
        <time>2016-06-09T13:05:58Z</time>
      </trkpt>
      <trkpt lat="43.38849" lon="2.29997">
        <ele>774</ele>
        <time>2016-06-09T13:06:08Z</time>
      </trkpt>
      <trkpt lat="43.38859" lon="2.2999">
        <ele>774.48</ele>
        <time>2016-06-09T13:06:19Z</time>
      </trkpt>
      <trkpt lat="43.38869" lon="2.29982">
        <ele>775.44</ele>
        <time>2016-06-09T13:06:30Z</time>
      </trkpt>
      <trkpt lat="43.38878" lon="2.29974">
        <ele>775.44</ele>
        <time>2016-06-09T13:06:41Z</time>
      </trkpt>
      <trkpt lat="43.3889" lon="2.29967">
        <ele>776.4</ele>
        <time>2016-06-09T13:06:51Z</time>
      </trkpt>
      <trkpt lat="43.389" lon="2.2996">
        <ele>776.88</ele>
        <time>2016-06-09T13:07:03Z</time>
      </trkpt>
      <trkpt lat="43.38911" lon="2.29952">
        <ele>777.84</ele>
        <time>2016-06-09T13:07:13Z</time>
      </trkpt>
      <trkpt lat="43.38922" lon="2.29946">
        <ele>778.32</ele>
        <time>2016-06-09T13:07:26Z</time>
      </trkpt>
      <trkpt lat="43.38934" lon="2.29937">
        <ele>779.29</ele>
        <time>2016-06-09T13:07:39Z</time>
      </trkpt>
      <trkpt lat="43.38951" lon="2.29921">
        <ele>779.77</ele>
        <time>2016-06-09T13:07:51Z</time>
      </trkpt>
      <trkpt lat="43.38963" lon="2.29913">
        <ele>780.25</ele>
        <time>2016-06-09T13:08:02Z</time>
      </trkpt>
      <trkpt lat="43.38977" lon="2.29902">
        <ele>780.25</ele>
        <time>2016-06-09T13:08:14Z</time>
      </trkpt>
      <trkpt lat="43.38987" lon="2.29895">
        <ele>780.73</ele>
        <time>2016-06-09T13:08:25Z</time>
      </trkpt>
      <trkpt lat="43.38996" lon="2.29885">
        <ele>781.21</ele>
        <time>2016-06-09T13:08:36Z</time>
      </trkpt>
      <trkpt lat="43.39006" lon="2.29874">
        <ele>781.69</ele>
        <time>2016-06-09T13:08:47Z</time>
      </trkpt>
      <trkpt lat="43.3902" lon="2.29858">
        <ele>781.69</ele>
        <time>2016-06-09T13:08:57Z</time>
      </trkpt>
      <trkpt lat="43.39029" lon="2.29847">
        <ele>781.69</ele>
        <time>2016-06-09T13:09:07Z</time>
      </trkpt>
      <trkpt lat="43.39037" lon="2.29836">
        <ele>781.69</ele>
        <time>2016-06-09T13:09:17Z</time>
      </trkpt>
      <trkpt lat="43.39046" lon="2.29824">
        <ele>782.17</ele>
        <time>2016-06-09T13:09:26Z</time>
      </trkpt>
      <trkpt lat="43.39054" lon="2.29815">
        <ele>782.17</ele>
        <time>2016-06-09T13:09:37Z</time>
      </trkpt>
      <trkpt lat="43.39061" lon="2.298">
        <ele>782.17</ele>
        <time>2016-06-09T13:09:47Z</time>
      </trkpt>
      <trkpt lat="43.3907" lon="2.29793">
        <ele>782.65</ele>
        <time>2016-06-09T13:09:57Z</time>
      </trkpt>
      <trkpt lat="43.39079" lon="2.29784">
        <ele>783.13</ele>
        <time>2016-06-09T13:10:07Z</time>
      </trkpt>
      <trkpt lat="43.39085" lon="2.29774">
        <ele>783.13</ele>
        <time>2016-06-09T13:10:16Z</time>
      </trkpt>
      <trkpt lat="43.39095" lon="2.29764">
        <ele>783.13</ele>
        <time>2016-06-09T13:10:25Z</time>
      </trkpt>
      <trkpt lat="43.39102" lon="2.29754">
        <ele>783.13</ele>
        <time>2016-06-09T13:10:34Z</time>
      </trkpt>
      <trkpt lat="43.39112" lon="2.29744">
        <ele>783.13</ele>
        <time>2016-06-09T13:10:44Z</time>
      </trkpt>
      <trkpt lat="43.39121" lon="2.29734">
        <ele>783.13</ele>
        <time>2016-06-09T13:10:54Z</time>
      </trkpt>
      <trkpt lat="43.39129" lon="2.29724">
        <ele>783.13</ele>
        <time>2016-06-09T13:11:04Z</time>
      </trkpt>
      <trkpt lat="43.39139" lon="2.29713">
        <ele>783.13</ele>
        <time>2016-06-09T13:11:13Z</time>
      </trkpt>
      <trkpt lat="43.39149" lon="2.29704">
        <ele>783.13</ele>
        <time>2016-06-09T13:11:22Z</time>
      </trkpt>
      <trkpt lat="43.39158" lon="2.29693">
        <ele>783.13</ele>
        <time>2016-06-09T13:11:31Z</time>
      </trkpt>
      <trkpt lat="43.39166" lon="2.29685">
        <ele>783.13</ele>
        <time>2016-06-09T13:11:40Z</time>
      </trkpt>
      <trkpt lat="43.39175" lon="2.29676">
        <ele>782.17</ele>
        <time>2016-06-09T13:11:49Z</time>
      </trkpt>
      <trkpt lat="43.39185" lon="2.29666">
        <ele>782.17</ele>
        <time>2016-06-09T13:12:00Z</time>
      </trkpt>
      <trkpt lat="43.39194" lon="2.29657">
        <ele>782.17</ele>
        <time>2016-06-09T13:12:09Z</time>
      </trkpt>
      <trkpt lat="43.39204" lon="2.29646">
        <ele>782.17</ele>
        <time>2016-06-09T13:12:20Z</time>
      </trkpt>
      <trkpt lat="43.39214" lon="2.29636">
        <ele>781.69</ele>
        <time>2016-06-09T13:12:30Z</time>
      </trkpt>
      <trkpt lat="43.39226" lon="2.29626">
        <ele>781.69</ele>
        <time>2016-06-09T13:12:41Z</time>
      </trkpt>
      <trkpt lat="43.39236" lon="2.29615">
        <ele>781.21</ele>
        <time>2016-06-09T13:12:51Z</time>
      </trkpt>
      <trkpt lat="43.39247" lon="2.29606">
        <ele>781.21</ele>
        <time>2016-06-09T13:13:01Z</time>
      </trkpt>
      <trkpt lat="43.39256" lon="2.29599">
        <ele>780.73</ele>
        <time>2016-06-09T13:13:12Z</time>
      </trkpt>
      <trkpt lat="43.39267" lon="2.29589">
        <ele>780.73</ele>
        <time>2016-06-09T13:13:20Z</time>
      </trkpt>
      <trkpt lat="43.3928" lon="2.2958">
        <ele>780.73</ele>
        <time>2016-06-09T13:13:30Z</time>
      </trkpt>
      <trkpt lat="43.3929" lon="2.29568">
        <ele>782.65</ele>
        <time>2016-06-09T13:14:38Z</time>
      </trkpt>
      <trkpt lat="43.39281" lon="2.29558">
        <ele>783.13</ele>
        <time>2016-06-09T13:14:50Z</time>
      </trkpt>
      <trkpt lat="43.39272" lon="2.29545">
        <ele>785.53</ele>
        <time>2016-06-09T13:15:01Z</time>
      </trkpt>
      <trkpt lat="43.39265" lon="2.29535">
        <ele>786.5</ele>
        <time>2016-06-09T13:15:11Z</time>
      </trkpt>
      <trkpt lat="43.39259" lon="2.29523">
        <ele>787.46</ele>
        <time>2016-06-09T13:15:22Z</time>
      </trkpt>
      <trkpt lat="43.39253" lon="2.29512">
        <ele>789.38</ele>
        <time>2016-06-09T13:15:32Z</time>
      </trkpt>
      <trkpt lat="43.39245" lon="2.29502">
        <ele>790.34</ele>
        <time>2016-06-09T13:15:42Z</time>
      </trkpt>
      <trkpt lat="43.39238" lon="2.29491">
        <ele>790.82</ele>
        <time>2016-06-09T13:15:52Z</time>
      </trkpt>
      <trkpt lat="43.3923" lon="2.29478">
        <ele>791.3</ele>
        <time>2016-06-09T13:16:02Z</time>
      </trkpt>
      <trkpt lat="43.39225" lon="2.29466">
        <ele>791.78</ele>
        <time>2016-06-09T13:16:11Z</time>
      </trkpt>
      <trkpt lat="43.39219" lon="2.29452">
        <ele>791.78</ele>
        <time>2016-06-09T13:16:20Z</time>
      </trkpt>
      <trkpt lat="43.39214" lon="2.2944">
        <ele>792.26</ele>
        <time>2016-06-09T13:16:29Z</time>
      </trkpt>
      <trkpt lat="43.39208" lon="2.29426">
        <ele>792.26</ele>
        <time>2016-06-09T13:16:38Z</time>
      </trkpt>
      <trkpt lat="43.39203" lon="2.29412">
        <ele>792.26</ele>
        <time>2016-06-09T13:16:48Z</time>
      </trkpt>
      <trkpt lat="43.39197" lon="2.29401">
        <ele>792.26</ele>
        <time>2016-06-09T13:16:57Z</time>
      </trkpt>
      <trkpt lat="43.39189" lon="2.29389">
        <ele>790.82</ele>
        <time>2016-06-09T13:17:07Z</time>
      </trkpt>
      <trkpt lat="43.39179" lon="2.2938">
        <ele>789.86</ele>
        <time>2016-06-09T13:17:17Z</time>
      </trkpt>
      <trkpt lat="43.39169" lon="2.29373">
        <ele>788.42</ele>
        <time>2016-06-09T13:17:26Z</time>
      </trkpt>
      <trkpt lat="43.39158" lon="2.29364">
        <ele>787.94</ele>
        <time>2016-06-09T13:17:36Z</time>
      </trkpt>
      <trkpt lat="43.39148" lon="2.29355">
        <ele>786.02</ele>
        <time>2016-06-09T13:17:47Z</time>
      </trkpt>
      <trkpt lat="43.39132" lon="2.29344">
        <ele>784.57</ele>
        <time>2016-06-09T13:18:04Z</time>
      </trkpt>
      <trkpt lat="43.39125" lon="2.29343">
        <ele>784.57</ele>
        <time>2016-06-09T13:18:18Z</time>
      </trkpt>
      <trkpt lat="43.39115" lon="2.29341">
        <ele>783.61</ele>
        <time>2016-06-09T13:18:28Z</time>
      </trkpt>
      <trkpt lat="43.39106" lon="2.2935">
        <ele>783.61</ele>
        <time>2016-06-09T13:18:37Z</time>
      </trkpt>
      <trkpt lat="43.39099" lon="2.29359">
        <ele>783.61</ele>
        <time>2016-06-09T13:18:45Z</time>
      </trkpt>
      <trkpt lat="43.39094" lon="2.29368">
        <ele>783.61</ele>
        <time>2016-06-09T13:18:56Z</time>
      </trkpt>
      <trkpt lat="43.39087" lon="2.29378">
        <ele>783.61</ele>
        <time>2016-06-09T13:19:04Z</time>
      </trkpt>
      <trkpt lat="43.3908" lon="2.29386">
        <ele>783.61</ele>
        <time>2016-06-09T13:19:12Z</time>
      </trkpt>
      <trkpt lat="43.39073" lon="2.29397">
        <ele>783.61</ele>
        <time>2016-06-09T13:19:20Z</time>
      </trkpt>
      <trkpt lat="43.39066" lon="2.29406">
        <ele>783.13</ele>
        <time>2016-06-09T13:19:28Z</time>
      </trkpt>
      <trkpt lat="43.39058" lon="2.29415">
        <ele>783.13</ele>
        <time>2016-06-09T13:19:36Z</time>
      </trkpt>
      <trkpt lat="43.39051" lon="2.29424">
        <ele>783.13</ele>
        <time>2016-06-09T13:19:44Z</time>
      </trkpt>
      <trkpt lat="43.39044" lon="2.29433">
        <ele>783.13</ele>
        <time>2016-06-09T13:19:52Z</time>
      </trkpt>
      <trkpt lat="43.39038" lon="2.29442">
        <ele>783.13</ele>
        <time>2016-06-09T13:20:00Z</time>
      </trkpt>
      <trkpt lat="43.39029" lon="2.2945">
        <ele>783.13</ele>
        <time>2016-06-09T13:20:08Z</time>
      </trkpt>
      <trkpt lat="43.39021" lon="2.29457">
        <ele>782.65</ele>
        <time>2016-06-09T13:20:16Z</time>
      </trkpt>
      <trkpt lat="43.39012" lon="2.29464">
        <ele>782.65</ele>
        <time>2016-06-09T13:20:24Z</time>
      </trkpt>
      <trkpt lat="43.39004" lon="2.29472">
        <ele>782.65</ele>
        <time>2016-06-09T13:20:32Z</time>
      </trkpt>
      <trkpt lat="43.38995" lon="2.29479">
        <ele>782.65</ele>
        <time>2016-06-09T13:20:40Z</time>
      </trkpt>
      <trkpt lat="43.38987" lon="2.29486">
        <ele>782.17</ele>
        <time>2016-06-09T13:20:48Z</time>
      </trkpt>
      <trkpt lat="43.3898" lon="2.29494">
        <ele>782.17</ele>
        <time>2016-06-09T13:20:56Z</time>
      </trkpt>
      <trkpt lat="43.38971" lon="2.29501">
        <ele>782.17</ele>
        <time>2016-06-09T13:21:05Z</time>
      </trkpt>
      <trkpt lat="43.3896" lon="2.29506">
        <ele>782.17</ele>
        <time>2016-06-09T13:21:13Z</time>
      </trkpt>
      <trkpt lat="43.38949" lon="2.29513">
        <ele>781.69</ele>
        <time>2016-06-09T13:21:21Z</time>
      </trkpt>
      <trkpt lat="43.3894" lon="2.29521">
        <ele>782.17</ele>
        <time>2016-06-09T13:21:29Z</time>
      </trkpt>
      <trkpt lat="43.3893" lon="2.29525">
        <ele>781.69</ele>
        <time>2016-06-09T13:21:37Z</time>
      </trkpt>
      <trkpt lat="43.3892" lon="2.29533">
        <ele>781.69</ele>
        <time>2016-06-09T13:21:45Z</time>
      </trkpt>
      <trkpt lat="43.3891" lon="2.29541">
        <ele>781.21</ele>
        <time>2016-06-09T13:21:53Z</time>
      </trkpt>
      <trkpt lat="43.38899" lon="2.29546">
        <ele>781.69</ele>
        <time>2016-06-09T13:22:01Z</time>
      </trkpt>
      <trkpt lat="43.38891" lon="2.29554">
        <ele>781.69</ele>
        <time>2016-06-09T13:22:09Z</time>
      </trkpt>
      <trkpt lat="43.38883" lon="2.29561">
        <ele>781.21</ele>
        <time>2016-06-09T13:22:17Z</time>
      </trkpt>
      <trkpt lat="43.38874" lon="2.29567">
        <ele>781.21</ele>
        <time>2016-06-09T13:22:25Z</time>
      </trkpt>
      <trkpt lat="43.38866" lon="2.29574">
        <ele>780.73</ele>
        <time>2016-06-09T13:22:33Z</time>
      </trkpt>
      <trkpt lat="43.38858" lon="2.29582">
        <ele>779.77</ele>
        <time>2016-06-09T13:22:41Z</time>
      </trkpt>
      <trkpt lat="43.3885" lon="2.2959">
        <ele>779.77</ele>
        <time>2016-06-09T13:22:49Z</time>
      </trkpt>
      <trkpt lat="43.38842" lon="2.29597">
        <ele>778.81</ele>
        <time>2016-06-09T13:22:57Z</time>
      </trkpt>
      <trkpt lat="43.38834" lon="2.29603">
        <ele>778.81</ele>
        <time>2016-06-09T13:23:05Z</time>
      </trkpt>
      <trkpt lat="43.38823" lon="2.29611">
        <ele>778.32</ele>
        <time>2016-06-09T13:23:14Z</time>
      </trkpt>
      <trkpt lat="43.38815" lon="2.29617">
        <ele>778.32</ele>
        <time>2016-06-09T13:23:22Z</time>
      </trkpt>
      <trkpt lat="43.38806" lon="2.29625">
        <ele>777.84</ele>
        <time>2016-06-09T13:23:30Z</time>
      </trkpt>
      <trkpt lat="43.38799" lon="2.29633">
        <ele>777.36</ele>
        <time>2016-06-09T13:23:37Z</time>
      </trkpt>
      <trkpt lat="43.38791" lon="2.29643">
        <ele>777.36</ele>
        <time>2016-06-09T13:23:45Z</time>
      </trkpt>
      <trkpt lat="43.38784" lon="2.29651">
        <ele>776.4</ele>
        <time>2016-06-09T13:23:53Z</time>
      </trkpt>
      <trkpt lat="43.38775" lon="2.29658">
        <ele>775.92</ele>
        <time>2016-06-09T13:24:04Z</time>
      </trkpt>
      <trkpt lat="43.38766" lon="2.29666">
        <ele>774.96</ele>
        <time>2016-06-09T13:24:14Z</time>
      </trkpt>
      <trkpt lat="43.38757" lon="2.29679">
        <ele>774.48</ele>
        <time>2016-06-09T13:24:23Z</time>
      </trkpt>
      <trkpt lat="43.38749" lon="2.29687">
        <ele>774.48</ele>
        <time>2016-06-09T13:24:32Z</time>
      </trkpt>
      <trkpt lat="43.38741" lon="2.29695">
        <ele>774.48</ele>
        <time>2016-06-09T13:24:41Z</time>
      </trkpt>
      <trkpt lat="43.38733" lon="2.29703">
        <ele>773.52</ele>
        <time>2016-06-09T13:24:51Z</time>
      </trkpt>
      <trkpt lat="43.38724" lon="2.2971">
        <ele>773.04</ele>
        <time>2016-06-09T13:25:02Z</time>
      </trkpt>
      <trkpt lat="43.38714" lon="2.29716">
        <ele>772.56</ele>
        <time>2016-06-09T13:25:13Z</time>
      </trkpt>
      <trkpt lat="43.38704" lon="2.29726">
        <ele>772.56</ele>
        <time>2016-06-09T13:25:25Z</time>
      </trkpt>
      <trkpt lat="43.38696" lon="2.29739">
        <ele>771.6</ele>
        <time>2016-06-09T13:25:35Z</time>
      </trkpt>
      <trkpt lat="43.38687" lon="2.2975">
        <ele>770.63</ele>
        <time>2016-06-09T13:25:45Z</time>
      </trkpt>
      <trkpt lat="43.38677" lon="2.29758">
        <ele>770.63</ele>
        <time>2016-06-09T13:25:54Z</time>
      </trkpt>
      <trkpt lat="43.38669" lon="2.29765">
        <ele>770.15</ele>
        <time>2016-06-09T13:26:02Z</time>
      </trkpt>
      <trkpt lat="43.38661" lon="2.29772">
        <ele>769.19</ele>
        <time>2016-06-09T13:26:10Z</time>
      </trkpt>
      <trkpt lat="43.38653" lon="2.29777">
        <ele>768.71</ele>
        <time>2016-06-09T13:26:19Z</time>
      </trkpt>
      <trkpt lat="43.38644" lon="2.29785">
        <ele>768.23</ele>
        <time>2016-06-09T13:26:28Z</time>
      </trkpt>
      <trkpt lat="43.38635" lon="2.29795">
        <ele>767.75</ele>
        <time>2016-06-09T13:26:37Z</time>
      </trkpt>
      <trkpt lat="43.38628" lon="2.29811">
        <ele>767.27</ele>
        <time>2016-06-09T13:26:46Z</time>
      </trkpt>
      <trkpt lat="43.38624" lon="2.29822">
        <ele>767.75</ele>
        <time>2016-06-09T13:26:59Z</time>
      </trkpt>
      <trkpt lat="43.38617" lon="2.29829">
        <ele>766.79</ele>
        <time>2016-06-09T13:27:09Z</time>
      </trkpt>
      <trkpt lat="43.38609" lon="2.29836">
        <ele>765.35</ele>
        <time>2016-06-09T13:27:18Z</time>
      </trkpt>
      <trkpt lat="43.38601" lon="2.29845">
        <ele>764.39</ele>
        <time>2016-06-09T13:27:27Z</time>
      </trkpt>
      <trkpt lat="43.38592" lon="2.29849">
        <ele>763.42</ele>
        <time>2016-06-09T13:27:35Z</time>
      </trkpt>
      <trkpt lat="43.38584" lon="2.29855">
        <ele>762.46</ele>
        <time>2016-06-09T13:27:43Z</time>
      </trkpt>
      <trkpt lat="43.38576" lon="2.2986">
        <ele>761.98</ele>
        <time>2016-06-09T13:27:51Z</time>
      </trkpt>
      <trkpt lat="43.38568" lon="2.29864">
        <ele>761.02</ele>
        <time>2016-06-09T13:28:00Z</time>
      </trkpt>
      <trkpt lat="43.38558" lon="2.2987">
        <ele>760.54</ele>
        <time>2016-06-09T13:28:09Z</time>
      </trkpt>
      <trkpt lat="43.38549" lon="2.29877">
        <ele>760.06</ele>
        <time>2016-06-09T13:28:19Z</time>
      </trkpt>
      <trkpt lat="43.38537" lon="2.29885">
        <ele>758.62</ele>
        <time>2016-06-09T13:28:31Z</time>
      </trkpt>
      <trkpt lat="43.38528" lon="2.29895">
        <ele>758.14</ele>
        <time>2016-06-09T13:28:44Z</time>
      </trkpt>
      <trkpt lat="43.38519" lon="2.29906">
        <ele>758.14</ele>
        <time>2016-06-09T13:28:54Z</time>
      </trkpt>
      <trkpt lat="43.38511" lon="2.29918">
        <ele>757.18</ele>
        <time>2016-06-09T13:29:03Z</time>
      </trkpt>
      <trkpt lat="43.38505" lon="2.2993">
        <ele>757.18</ele>
        <time>2016-06-09T13:29:12Z</time>
      </trkpt>
      <trkpt lat="43.38499" lon="2.2994">
        <ele>756.69</ele>
        <time>2016-06-09T13:29:20Z</time>
      </trkpt>
      <trkpt lat="43.38493" lon="2.2995">
        <ele>755.73</ele>
        <time>2016-06-09T13:29:28Z</time>
      </trkpt>
      <trkpt lat="43.38486" lon="2.29959">
        <ele>755.25</ele>
        <time>2016-06-09T13:29:36Z</time>
      </trkpt>
      <trkpt lat="43.38477" lon="2.29966">
        <ele>754.77</ele>
        <time>2016-06-09T13:29:44Z</time>
      </trkpt>
      <trkpt lat="43.38468" lon="2.29967">
        <ele>753.81</ele>
        <time>2016-06-09T13:29:52Z</time>
      </trkpt>
      <trkpt lat="43.38459" lon="2.29966">
        <ele>752.85</ele>
        <time>2016-06-09T13:30:01Z</time>
      </trkpt>
      <trkpt lat="43.38449" lon="2.29964">
        <ele>751.41</ele>
        <time>2016-06-09T13:30:10Z</time>
      </trkpt>
      <trkpt lat="43.38438" lon="2.29962">
        <ele>750.45</ele>
        <time>2016-06-09T13:30:18Z</time>
      </trkpt>
      <trkpt lat="43.38428" lon="2.29961">
        <ele>749.97</ele>
        <time>2016-06-09T13:30:26Z</time>
      </trkpt>
      <trkpt lat="43.38417" lon="2.2996">
        <ele>749.49</ele>
        <time>2016-06-09T13:30:34Z</time>
      </trkpt>
      <trkpt lat="43.38407" lon="2.29962">
        <ele>748.52</ele>
        <time>2016-06-09T13:30:43Z</time>
      </trkpt>
      <trkpt lat="43.38398" lon="2.29962">
        <ele>748.04</ele>
        <time>2016-06-09T13:30:51Z</time>
      </trkpt>
      <trkpt lat="43.38388" lon="2.29963">
        <ele>747.08</ele>
        <time>2016-06-09T13:30:59Z</time>
      </trkpt>
      <trkpt lat="43.38377" lon="2.2996">
        <ele>746.6</ele>
        <time>2016-06-09T13:31:06Z</time>
      </trkpt>
      <trkpt lat="43.38367" lon="2.2996">
        <ele>746.12</ele>
        <time>2016-06-09T13:31:14Z</time>
      </trkpt>
      <trkpt lat="43.38357" lon="2.2996">
        <ele>746.12</ele>
        <time>2016-06-09T13:31:22Z</time>
      </trkpt>
      <trkpt lat="43.38347" lon="2.2996">
        <ele>745.64</ele>
        <time>2016-06-09T13:31:30Z</time>
      </trkpt>
      <trkpt lat="43.38337" lon="2.2996">
        <ele>745.16</ele>
        <time>2016-06-09T13:31:37Z</time>
      </trkpt>
      <trkpt lat="43.38327" lon="2.2996">
        <ele>744.2</ele>
        <time>2016-06-09T13:31:45Z</time>
      </trkpt>
      <trkpt lat="43.3832" lon="2.29957">
        <ele>743.24</ele>
        <time>2016-06-09T13:31:53Z</time>
      </trkpt>
      <trkpt lat="43.38309" lon="2.29958">
        <ele>742.76</ele>
        <time>2016-06-09T13:32:01Z</time>
      </trkpt>
      <trkpt lat="43.38301" lon="2.29955">
        <ele>741.79</ele>
        <time>2016-06-09T13:32:09Z</time>
      </trkpt>
      <trkpt lat="43.38293" lon="2.29955">
        <ele>740.83</ele>
        <time>2016-06-09T13:32:17Z</time>
      </trkpt>
      <trkpt lat="43.38283" lon="2.29954">
        <ele>738.91</ele>
        <time>2016-06-09T13:32:25Z</time>
      </trkpt>
      <trkpt lat="43.38273" lon="2.29953">
        <ele>738.43</ele>
        <time>2016-06-09T13:32:34Z</time>
      </trkpt>
      <trkpt lat="43.38264" lon="2.29951">
        <ele>737.47</ele>
        <time>2016-06-09T13:32:43Z</time>
      </trkpt>
      <trkpt lat="43.38253" lon="2.29949">
        <ele>736.99</ele>
        <time>2016-06-09T13:32:52Z</time>
      </trkpt>
      <trkpt lat="43.38242" lon="2.29948">
        <ele>736.51</ele>
        <time>2016-06-09T13:33:01Z</time>
      </trkpt>
      <trkpt lat="43.3823" lon="2.29946">
        <ele>736.03</ele>
        <time>2016-06-09T13:33:09Z</time>
      </trkpt>
      <trkpt lat="43.3822" lon="2.29945">
        <ele>735.55</ele>
        <time>2016-06-09T13:33:16Z</time>
      </trkpt>
      <trkpt lat="43.38211" lon="2.29942">
        <ele>735.07</ele>
        <time>2016-06-09T13:33:25Z</time>
      </trkpt>
      <trkpt lat="43.382" lon="2.29943">
        <ele>735.55</ele>
        <time>2016-06-09T13:33:33Z</time>
      </trkpt>
      <trkpt lat="43.38188" lon="2.29942">
        <ele>734.58</ele>
        <time>2016-06-09T13:33:41Z</time>
      </trkpt>
      <trkpt lat="43.38179" lon="2.29939">
        <ele>733.62</ele>
        <time>2016-06-09T13:33:49Z</time>
      </trkpt>
      <trkpt lat="43.38168" lon="2.29941">
        <ele>734.1</ele>
        <time>2016-06-09T13:33:57Z</time>
      </trkpt>
      <trkpt lat="43.38157" lon="2.29942">
        <ele>734.1</ele>
        <time>2016-06-09T13:34:05Z</time>
      </trkpt>
      <trkpt lat="43.38147" lon="2.29942">
        <ele>733.62</ele>
        <time>2016-06-09T13:34:13Z</time>
      </trkpt>
      <trkpt lat="43.38137" lon="2.29942">
        <ele>733.62</ele>
        <time>2016-06-09T13:34:21Z</time>
      </trkpt>
      <trkpt lat="43.38128" lon="2.29942">
        <ele>733.14</ele>
        <time>2016-06-09T13:34:29Z</time>
      </trkpt>
      <trkpt lat="43.38118" lon="2.29945">
        <ele>732.66</ele>
        <time>2016-06-09T13:34:37Z</time>
      </trkpt>
      <trkpt lat="43.38107" lon="2.29943">
        <ele>731.7</ele>
        <time>2016-06-09T13:34:45Z</time>
      </trkpt>
      <trkpt lat="43.38098" lon="2.29942">
        <ele>731.22</ele>
        <time>2016-06-09T13:34:53Z</time>
      </trkpt>
      <trkpt lat="43.38089" lon="2.29941">
        <ele>730.26</ele>
        <time>2016-06-09T13:35:01Z</time>
      </trkpt>
      <trkpt lat="43.38079" lon="2.2994">
        <ele>729.78</ele>
        <time>2016-06-09T13:35:09Z</time>
      </trkpt>
      <trkpt lat="43.38069" lon="2.29941">
        <ele>729.3</ele>
        <time>2016-06-09T13:35:17Z</time>
      </trkpt>
      <trkpt lat="43.3806" lon="2.2994">
        <ele>727.37</ele>
        <time>2016-06-09T13:35:26Z</time>
      </trkpt>
      <trkpt lat="43.3805" lon="2.29939">
        <ele>726.41</ele>
        <time>2016-06-09T13:35:34Z</time>
      </trkpt>
      <trkpt lat="43.3804" lon="2.29938">
        <ele>725.45</ele>
        <time>2016-06-09T13:35:43Z</time>
      </trkpt>
      <trkpt lat="43.38031" lon="2.29937">
        <ele>724.49</ele>
        <time>2016-06-09T13:35:52Z</time>
      </trkpt>
      <trkpt lat="43.38021" lon="2.29932">
        <ele>723.53</ele>
        <time>2016-06-09T13:36:01Z</time>
      </trkpt>
      <trkpt lat="43.3801" lon="2.2993">
        <ele>722.57</ele>
        <time>2016-06-09T13:36:10Z</time>
      </trkpt>
      <trkpt lat="43.37999" lon="2.29928">
        <ele>722.09</ele>
        <time>2016-06-09T13:36:24Z</time>
      </trkpt>
      <trkpt lat="43.37989" lon="2.29928">
        <ele>720.65</ele>
        <time>2016-06-09T13:36:32Z</time>
      </trkpt>
      <trkpt lat="43.37979" lon="2.29928">
        <ele>720.16</ele>
        <time>2016-06-09T13:36:41Z</time>
      </trkpt>
      <trkpt lat="43.37969" lon="2.29926">
        <ele>719.2</ele>
        <time>2016-06-09T13:36:50Z</time>
      </trkpt>
      <trkpt lat="43.37959" lon="2.29924">
        <ele>717.76</ele>
        <time>2016-06-09T13:36:58Z</time>
      </trkpt>
      <trkpt lat="43.37947" lon="2.29923">
        <ele>717.28</ele>
        <time>2016-06-09T13:37:07Z</time>
      </trkpt>
      <trkpt lat="43.37937" lon="2.29922">
        <ele>715.84</ele>
        <time>2016-06-09T13:37:15Z</time>
      </trkpt>
      <trkpt lat="43.37927" lon="2.29921">
        <ele>715.36</ele>
        <time>2016-06-09T13:37:24Z</time>
      </trkpt>
      <trkpt lat="43.37918" lon="2.2992">
        <ele>714.4</ele>
        <time>2016-06-09T13:37:32Z</time>
      </trkpt>
      <trkpt lat="43.37908" lon="2.29921">
        <ele>712.95</ele>
        <time>2016-06-09T13:37:40Z</time>
      </trkpt>
      <trkpt lat="43.37898" lon="2.2992">
        <ele>711.99</ele>
        <time>2016-06-09T13:37:49Z</time>
      </trkpt>
      <trkpt lat="43.37889" lon="2.29919">
        <ele>710.55</ele>
        <time>2016-06-09T13:37:58Z</time>
      </trkpt>
      <trkpt lat="43.37879" lon="2.29915">
        <ele>709.59</ele>
        <time>2016-06-09T13:38:07Z</time>
      </trkpt>
      <trkpt lat="43.3787" lon="2.29911">
        <ele>708.63</ele>
        <time>2016-06-09T13:38:16Z</time>
      </trkpt>
      <trkpt lat="43.37859" lon="2.29908">
        <ele>707.19</ele>
        <time>2016-06-09T13:38:25Z</time>
      </trkpt>
      <trkpt lat="43.3785" lon="2.29902">
        <ele>706.23</ele>
        <time>2016-06-09T13:38:34Z</time>
      </trkpt>
      <trkpt lat="43.37842" lon="2.29896">
        <ele>704.78</ele>
        <time>2016-06-09T13:38:43Z</time>
      </trkpt>
      <trkpt lat="43.37833" lon="2.29891">
        <ele>703.82</ele>
        <time>2016-06-09T13:38:52Z</time>
      </trkpt>
      <trkpt lat="43.37826" lon="2.29885">
        <ele>702.86</ele>
        <time>2016-06-09T13:39:02Z</time>
      </trkpt>
      <trkpt lat="43.37817" lon="2.2988">
        <ele>700.94</ele>
        <time>2016-06-09T13:39:12Z</time>
      </trkpt>
      <trkpt lat="43.37806" lon="2.29874">
        <ele>699.98</ele>
        <time>2016-06-09T13:39:24Z</time>
      </trkpt>
      <trkpt lat="43.37797" lon="2.29868">
        <ele>697.57</ele>
        <time>2016-06-09T13:39:36Z</time>
      </trkpt>
      <trkpt lat="43.37781" lon="2.29866">
        <ele>696.13</ele>
        <time>2016-06-09T13:39:54Z</time>
      </trkpt>
      <trkpt lat="43.3777" lon="2.29861">
        <ele>694.69</ele>
        <time>2016-06-09T13:40:05Z</time>
      </trkpt>
      <trkpt lat="43.37759" lon="2.29855">
        <ele>693.25</ele>
        <time>2016-06-09T13:40:17Z</time>
      </trkpt>
      <trkpt lat="43.37743" lon="2.29856">
        <ele>691.81</ele>
        <time>2016-06-09T13:40:29Z</time>
      </trkpt>
      <trkpt lat="43.37733" lon="2.29852">
        <ele>690.36</ele>
        <time>2016-06-09T13:40:42Z</time>
      </trkpt>
      <trkpt lat="43.3772" lon="2.2985">
        <ele>688.44</ele>
        <time>2016-06-09T13:40:52Z</time>
      </trkpt>
      <trkpt lat="43.37708" lon="2.29848">
        <ele>687.96</ele>
        <time>2016-06-09T13:41:05Z</time>
      </trkpt>
      <trkpt lat="43.37695" lon="2.29851">
        <ele>687</ele>
        <time>2016-06-09T13:42:27Z</time>
      </trkpt>
      <trkpt lat="43.37688" lon="2.29844">
        <ele>685.56</ele>
        <time>2016-06-09T13:42:37Z</time>
      </trkpt>
      <trkpt lat="43.3768" lon="2.29836">
        <ele>684.12</ele>
        <time>2016-06-09T13:42:48Z</time>
      </trkpt>
      <trkpt lat="43.37667" lon="2.29828">
        <ele>683.15</ele>
        <time>2016-06-09T13:42:59Z</time>
      </trkpt>
      <trkpt lat="43.37661" lon="2.29828">
        <ele>682.67</ele>
        <time>2016-06-09T13:43:13Z</time>
      </trkpt>
      <trkpt lat="43.37661" lon="2.29827">
        <ele>681.71</ele>
        <time>2016-06-09T13:44:03Z</time>
      </trkpt>
      <trkpt lat="43.37664" lon="2.2983">
        <ele>681.23</ele>
        <time>2016-06-09T13:46:18Z</time>
      </trkpt>
      <trkpt lat="43.37669" lon="2.29833">
        <ele>681.71</ele>
        <time>2016-06-09T13:46:56Z</time>
      </trkpt>
      <trkpt lat="43.37678" lon="2.29838">
        <ele>682.67</ele>
        <time>2016-06-09T13:47:07Z</time>
      </trkpt>
      <trkpt lat="43.37686" lon="2.29844">
        <ele>683.63</ele>
        <time>2016-06-09T13:47:25Z</time>
      </trkpt>
      <trkpt lat="43.37693" lon="2.29851">
        <ele>684.12</ele>
        <time>2016-06-09T13:47:38Z</time>
      </trkpt>
      <trkpt lat="43.37688" lon="2.29855">
        <ele>683.63</ele>
        <time>2016-06-09T13:47:51Z</time>
      </trkpt>
      <trkpt lat="43.37678" lon="2.29855">
        <ele>682.19</ele>
        <time>2016-06-09T13:48:02Z</time>
      </trkpt>
      <trkpt lat="43.37668" lon="2.29857">
        <ele>680.75</ele>
        <time>2016-06-09T13:48:12Z</time>
      </trkpt>
      <trkpt lat="43.37658" lon="2.29861">
        <ele>679.79</ele>
        <time>2016-06-09T13:48:22Z</time>
      </trkpt>
      <trkpt lat="43.37648" lon="2.2986">
        <ele>678.83</ele>
        <time>2016-06-09T13:48:36Z</time>
      </trkpt>
      <trkpt lat="43.37638" lon="2.29862">
        <ele>676.91</ele>
        <time>2016-06-09T13:48:47Z</time>
      </trkpt>
      <trkpt lat="43.37633" lon="2.2987">
        <ele>676.42</ele>
        <time>2016-06-09T13:49:31Z</time>
      </trkpt>
      <trkpt lat="43.37628" lon="2.29874">
        <ele>674.98</ele>
        <time>2016-06-09T13:50:29Z</time>
      </trkpt>
      <trkpt lat="43.37618" lon="2.29877">
        <ele>674.02</ele>
        <time>2016-06-09T13:50:41Z</time>
      </trkpt>
      <trkpt lat="43.3761" lon="2.29883">
        <ele>673.54</ele>
        <time>2016-06-09T13:50:50Z</time>
      </trkpt>
      <trkpt lat="43.37602" lon="2.29892">
        <ele>673.06</ele>
        <time>2016-06-09T13:50:59Z</time>
      </trkpt>
      <trkpt lat="43.37593" lon="2.29899">
        <ele>672.1</ele>
        <time>2016-06-09T13:51:09Z</time>
      </trkpt>
      <trkpt lat="43.37587" lon="2.29909">
        <ele>671.62</ele>
        <time>2016-06-09T13:51:17Z</time>
      </trkpt>
      <trkpt lat="43.37579" lon="2.29918">
        <ele>671.14</ele>
        <time>2016-06-09T13:51:25Z</time>
      </trkpt>
      <trkpt lat="43.37571" lon="2.29926">
        <ele>670.66</ele>
        <time>2016-06-09T13:51:33Z</time>
      </trkpt>
      <trkpt lat="43.37563" lon="2.29931">
        <ele>669.7</ele>
        <time>2016-06-09T13:51:41Z</time>
      </trkpt>
      <trkpt lat="43.37555" lon="2.29937">
        <ele>669.22</ele>
        <time>2016-06-09T13:51:49Z</time>
      </trkpt>
      <trkpt lat="43.37547" lon="2.29944">
        <ele>668.73</ele>
        <time>2016-06-09T13:51:57Z</time>
      </trkpt>
      <trkpt lat="43.37539" lon="2.2995">
        <ele>668.25</ele>
        <time>2016-06-09T13:52:05Z</time>
      </trkpt>
      <trkpt lat="43.3753" lon="2.29956">
        <ele>666.81</ele>
        <time>2016-06-09T13:52:14Z</time>
      </trkpt>
      <trkpt lat="43.37522" lon="2.2996">
        <ele>666.33</ele>
        <time>2016-06-09T13:52:22Z</time>
      </trkpt>
      <trkpt lat="43.37513" lon="2.29965">
        <ele>664.89</ele>
        <time>2016-06-09T13:52:31Z</time>
      </trkpt>
      <trkpt lat="43.37505" lon="2.29972">
        <ele>664.41</ele>
        <time>2016-06-09T13:52:40Z</time>
      </trkpt>
      <trkpt lat="43.37497" lon="2.29977">
        <ele>662.49</ele>
        <time>2016-06-09T13:52:50Z</time>
      </trkpt>
      <trkpt lat="43.37489" lon="2.29985">
        <ele>660.56</ele>
        <time>2016-06-09T13:52:59Z</time>
      </trkpt>
      <trkpt lat="43.37481" lon="2.29992">
        <ele>659.12</ele>
        <time>2016-06-09T13:53:08Z</time>
      </trkpt>
      <trkpt lat="43.37474" lon="2.29999">
        <ele>657.2</ele>
        <time>2016-06-09T13:53:17Z</time>
      </trkpt>
      <trkpt lat="43.37465" lon="2.30003">
        <ele>655.76</ele>
        <time>2016-06-09T13:53:26Z</time>
      </trkpt>
      <trkpt lat="43.37457" lon="2.30003">
        <ele>653.35</ele>
        <time>2016-06-09T13:53:40Z</time>
      </trkpt>
      <trkpt lat="43.3745" lon="2.30003">
        <ele>651.43</ele>
        <time>2016-06-09T13:54:02Z</time>
      </trkpt>
      <trkpt lat="43.37443" lon="2.30002">
        <ele>648.55</ele>
        <time>2016-06-09T13:59:28Z</time>
      </trkpt>
      <trkpt lat="43.37436" lon="2.29994">
        <ele>647.1</ele>
        <time>2016-06-09T13:59:38Z</time>
      </trkpt>
      <trkpt lat="43.3743" lon="2.29984">
        <ele>645.66</ele>
        <time>2016-06-09T13:59:50Z</time>
      </trkpt>
      <trkpt lat="43.37425" lon="2.29971">
        <ele>645.18</ele>
        <time>2016-06-09T14:00:01Z</time>
      </trkpt>
      <trkpt lat="43.37422" lon="2.29958">
        <ele>643.74</ele>
        <time>2016-06-09T14:00:11Z</time>
      </trkpt>
      <trkpt lat="43.37426" lon="2.29948">
        <ele>643.74</ele>
        <time>2016-06-09T14:00:20Z</time>
      </trkpt>
      <trkpt lat="43.37433" lon="2.29938">
        <ele>643.26</ele>
        <time>2016-06-09T14:00:31Z</time>
      </trkpt>
      <trkpt lat="43.37434" lon="2.29924">
        <ele>643.26</ele>
        <time>2016-06-09T14:00:41Z</time>
      </trkpt>
      <trkpt lat="43.37435" lon="2.29912">
        <ele>642.78</ele>
        <time>2016-06-09T14:00:49Z</time>
      </trkpt>
      <trkpt lat="43.37437" lon="2.29898">
        <ele>642.78</ele>
        <time>2016-06-09T14:00:57Z</time>
      </trkpt>
      <trkpt lat="43.37438" lon="2.29885">
        <ele>642.78</ele>
        <time>2016-06-09T14:01:05Z</time>
      </trkpt>
      <trkpt lat="43.37436" lon="2.29871">
        <ele>641.82</ele>
        <time>2016-06-09T14:01:14Z</time>
      </trkpt>
      <trkpt lat="43.37433" lon="2.29857">
        <ele>640.38</ele>
        <time>2016-06-09T14:01:28Z</time>
      </trkpt>
      <trkpt lat="43.3743" lon="2.29845">
        <ele>638.93</ele>
        <time>2016-06-09T14:01:36Z</time>
      </trkpt>
      <trkpt lat="43.37426" lon="2.29833">
        <ele>637.97</ele>
        <time>2016-06-09T14:01:44Z</time>
      </trkpt>
      <trkpt lat="43.37423" lon="2.29821">
        <ele>636.53</ele>
        <time>2016-06-09T14:01:53Z</time>
      </trkpt>
      <trkpt lat="43.37418" lon="2.29809">
        <ele>634.61</ele>
        <time>2016-06-09T14:02:02Z</time>
      </trkpt>
      <trkpt lat="43.37413" lon="2.29797">
        <ele>633.17</ele>
        <time>2016-06-09T14:02:11Z</time>
      </trkpt>
      <trkpt lat="43.37408" lon="2.29784">
        <ele>631.24</ele>
        <time>2016-06-09T14:02:21Z</time>
      </trkpt>
      <trkpt lat="43.37404" lon="2.29773">
        <ele>629.8</ele>
        <time>2016-06-09T14:02:32Z</time>
      </trkpt>
      <trkpt lat="43.37396" lon="2.29765">
        <ele>627.88</ele>
        <time>2016-06-09T14:02:43Z</time>
      </trkpt>
      <trkpt lat="43.37386" lon="2.29768">
        <ele>625.96</ele>
        <time>2016-06-09T14:02:54Z</time>
      </trkpt>
      <trkpt lat="43.37376" lon="2.29773">
        <ele>623.07</ele>
        <time>2016-06-09T14:03:08Z</time>
      </trkpt>
      <trkpt lat="43.37364" lon="2.2978">
        <ele>620.19</ele>
        <time>2016-06-09T14:03:24Z</time>
      </trkpt>
      <trkpt lat="43.37348" lon="2.29791">
        <ele>616.82</ele>
        <time>2016-06-09T14:03:44Z</time>
      </trkpt>
      <trkpt lat="43.37335" lon="2.29796">
        <ele>614.42</ele>
        <time>2016-06-09T14:03:56Z</time>
      </trkpt>
      <trkpt lat="43.37325" lon="2.29812">
        <ele>612.02</ele>
        <time>2016-06-09T14:04:10Z</time>
      </trkpt>
      <trkpt lat="43.37315" lon="2.29824">
        <ele>609.13</ele>
        <time>2016-06-09T14:04:24Z</time>
      </trkpt>
      <trkpt lat="43.37302" lon="2.29845">
        <ele>606.73</ele>
        <time>2016-06-09T14:04:43Z</time>
      </trkpt>
      <trkpt lat="43.37293" lon="2.2986">
        <ele>604.33</ele>
        <time>2016-06-09T14:04:55Z</time>
      </trkpt>
      <trkpt lat="43.37285" lon="2.29883">
        <ele>603.36</ele>
        <time>2016-06-09T14:05:08Z</time>
      </trkpt>
      <trkpt lat="43.37285" lon="2.29905">
        <ele>602.88</ele>
        <time>2016-06-09T14:05:26Z</time>
      </trkpt>
      <trkpt lat="43.37282" lon="2.29918">
        <ele>601.92</ele>
        <time>2016-06-09T14:05:38Z</time>
      </trkpt>
      <trkpt lat="43.3729" lon="2.29935">
        <ele>599.52</ele>
        <time>2016-06-09T14:05:52Z</time>
      </trkpt>
      <trkpt lat="43.37295" lon="2.2996">
        <ele>596.64</ele>
        <time>2016-06-09T14:06:13Z</time>
      </trkpt>
      <trkpt lat="43.37295" lon="2.29984">
        <ele>594.71</ele>
        <time>2016-06-09T14:06:35Z</time>
      </trkpt>
      <trkpt lat="43.373" lon="2.30018">
        <ele>592.31</ele>
        <time>2016-06-09T14:07:17Z</time>
      </trkpt>
      <trkpt lat="43.37292" lon="2.30031">
        <ele>588.95</ele>
        <time>2016-06-09T14:07:37Z</time>
      </trkpt>
      <trkpt lat="43.3728" lon="2.30054">
        <ele>585.1</ele>
        <time>2016-06-09T14:08:03Z</time>
      </trkpt>
      <trkpt lat="43.37273" lon="2.30081">
        <ele>583.18</ele>
        <time>2016-06-09T14:08:18Z</time>
      </trkpt>
      <trkpt lat="43.37266" lon="2.30098">
        <ele>580.77</ele>
        <time>2016-06-09T14:08:34Z</time>
      </trkpt>
      <trkpt lat="43.37259" lon="2.30112">
        <ele>579.81</ele>
        <time>2016-06-09T14:08:48Z</time>
      </trkpt>
      <trkpt lat="43.37247" lon="2.30131">
        <ele>576.93</ele>
        <time>2016-06-09T14:09:08Z</time>
      </trkpt>
      <trkpt lat="43.37235" lon="2.30154">
        <ele>575.01</ele>
        <time>2016-06-09T14:09:27Z</time>
      </trkpt>
      <trkpt lat="43.37225" lon="2.30161">
        <ele>572.6</ele>
        <time>2016-06-09T14:09:42Z</time>
      </trkpt>
      <trkpt lat="43.37218" lon="2.30185">
        <ele>570.2</ele>
        <time>2016-06-09T14:09:58Z</time>
      </trkpt>
      <trkpt lat="43.37209" lon="2.302">
        <ele>568.28</ele>
        <time>2016-06-09T14:10:10Z</time>
      </trkpt>
      <trkpt lat="43.372" lon="2.30216">
        <ele>565.87</ele>
        <time>2016-06-09T14:10:24Z</time>
      </trkpt>
      <trkpt lat="43.37191" lon="2.30228">
        <ele>564.43</ele>
        <time>2016-06-09T14:10:35Z</time>
      </trkpt>
      <trkpt lat="43.37185" lon="2.3024">
        <ele>562.51</ele>
        <time>2016-06-09T14:10:47Z</time>
      </trkpt>
      <trkpt lat="43.37181" lon="2.30236">
        <ele>561.07</ele>
        <time>2016-06-09T14:11:03Z</time>
      </trkpt>
      <trkpt lat="43.37179" lon="2.30219">
        <ele>559.62</ele>
        <time>2016-06-09T14:11:32Z</time>
      </trkpt>
      <trkpt lat="43.37177" lon="2.30208">
        <ele>556.74</ele>
        <time>2016-06-09T14:11:50Z</time>
      </trkpt>
      <trkpt lat="43.37165" lon="2.30211">
        <ele>553.86</ele>
        <time>2016-06-09T14:12:13Z</time>
      </trkpt>
      <trkpt lat="43.37156" lon="2.30209">
        <ele>552.9</ele>
        <time>2016-06-09T14:12:49Z</time>
      </trkpt>
      <trkpt lat="43.37157" lon="2.30185">
        <ele>551.45</ele>
        <time>2016-06-09T14:14:09Z</time>
      </trkpt>
      <trkpt lat="43.37163" lon="2.3015">
        <ele>550.49</ele>
        <time>2016-06-09T14:15:42Z</time>
      </trkpt>
      <trkpt lat="43.37174" lon="2.30126">
        <ele>549.05</ele>
        <time>2016-06-09T14:16:30Z</time>
      </trkpt>
      <trkpt lat="43.37184" lon="2.30113">
        <ele>548.57</ele>
        <time>2016-06-09T14:16:50Z</time>
      </trkpt>
      <trkpt lat="43.37196" lon="2.30097">
        <ele>549.05</ele>
        <time>2016-06-09T14:17:06Z</time>
      </trkpt>
      <trkpt lat="43.37209" lon="2.30086">
        <ele>549.53</ele>
        <time>2016-06-09T14:17:21Z</time>
      </trkpt>
      <trkpt lat="43.37221" lon="2.30065">
        <ele>550.01</ele>
        <time>2016-06-09T14:17:41Z</time>
      </trkpt>
      <trkpt lat="43.37222" lon="2.30046">
        <ele>549.53</ele>
        <time>2016-06-09T14:17:58Z</time>
      </trkpt>
      <trkpt lat="43.37212" lon="2.30035">
        <ele>548.57</ele>
        <time>2016-06-09T14:18:13Z</time>
      </trkpt>
      <trkpt lat="43.37204" lon="2.30014">
        <ele>548.57</ele>
        <time>2016-06-09T14:18:24Z</time>
      </trkpt>
      <trkpt lat="43.37199" lon="2.29996">
        <ele>549.05</ele>
        <time>2016-06-09T14:18:33Z</time>
      </trkpt>
      <trkpt lat="43.37192" lon="2.29982">
        <ele>549.53</ele>
        <time>2016-06-09T14:18:42Z</time>
      </trkpt>
      <trkpt lat="43.37186" lon="2.29968">
        <ele>550.01</ele>
        <time>2016-06-09T14:18:51Z</time>
      </trkpt>
      <trkpt lat="43.37182" lon="2.29954">
        <ele>551.45</ele>
        <time>2016-06-09T14:18:59Z</time>
      </trkpt>
      <trkpt lat="43.37178" lon="2.29939">
        <ele>552.41</ele>
        <time>2016-06-09T14:19:08Z</time>
      </trkpt>
      <trkpt lat="43.37171" lon="2.29925">
        <ele>554.34</ele>
        <time>2016-06-09T14:19:17Z</time>
      </trkpt>
      <trkpt lat="43.37162" lon="2.29916">
        <ele>554.34</ele>
        <time>2016-06-09T14:19:26Z</time>
      </trkpt>
      <trkpt lat="43.37155" lon="2.29907">
        <ele>554.82</ele>
        <time>2016-06-09T14:19:36Z</time>
      </trkpt>
      <trkpt lat="43.37147" lon="2.29897">
        <ele>554.82</ele>
        <time>2016-06-09T14:19:46Z</time>
      </trkpt>
      <trkpt lat="43.37138" lon="2.29886">
        <ele>553.86</ele>
        <time>2016-06-09T14:19:58Z</time>
      </trkpt>
      <trkpt lat="43.37129" lon="2.29871">
        <ele>553.38</ele>
        <time>2016-06-09T14:20:10Z</time>
      </trkpt>
      <trkpt lat="43.37117" lon="2.29859">
        <ele>552.41</ele>
        <time>2016-06-09T14:20:24Z</time>
      </trkpt>
      <trkpt lat="43.37106" lon="2.29844">
        <ele>551.93</ele>
        <time>2016-06-09T14:20:35Z</time>
      </trkpt>
      <trkpt lat="43.37093" lon="2.29831">
        <ele>550.97</ele>
        <time>2016-06-09T14:20:46Z</time>
      </trkpt>
      <trkpt lat="43.37086" lon="2.29838">
        <ele>550.01</ele>
        <time>2016-06-09T14:20:55Z</time>
      </trkpt>
      <trkpt lat="43.37084" lon="2.29851">
        <ele>549.53</ele>
        <time>2016-06-09T14:21:05Z</time>
      </trkpt>
      <trkpt lat="43.37086" lon="2.29853">
        <ele>549.53</ele>
        <time>2016-06-09T14:21:38Z</time>
      </trkpt>
      <trkpt lat="43.37084" lon="2.29865">
        <ele>549.53</ele>
        <time>2016-06-09T14:21:51Z</time>
      </trkpt>
      <trkpt lat="43.37078" lon="2.29878">
        <ele>549.53</ele>
        <time>2016-06-09T14:22:01Z</time>
      </trkpt>
      <trkpt lat="43.3707" lon="2.29887">
        <ele>550.49</ele>
        <time>2016-06-09T14:22:12Z</time>
      </trkpt>
      <trkpt lat="43.37065" lon="2.299">
        <ele>550.49</ele>
        <time>2016-06-09T14:22:23Z</time>
      </trkpt>
      <trkpt lat="43.37061" lon="2.29914">
        <ele>550.49</ele>
        <time>2016-06-09T14:22:31Z</time>
      </trkpt>
      <trkpt lat="43.37057" lon="2.29927">
        <ele>551.93</ele>
        <time>2016-06-09T14:22:41Z</time>
      </trkpt>
      <trkpt lat="43.37053" lon="2.29942">
        <ele>553.38</ele>
        <time>2016-06-09T14:22:52Z</time>
      </trkpt>
      <trkpt lat="43.37049" lon="2.29959">
        <ele>554.34</ele>
        <time>2016-06-09T14:23:04Z</time>
      </trkpt>
      <trkpt lat="43.37048" lon="2.29977">
        <ele>555.3</ele>
        <time>2016-06-09T14:23:15Z</time>
      </trkpt>
      <trkpt lat="43.37047" lon="2.29995">
        <ele>556.26</ele>
        <time>2016-06-09T14:23:25Z</time>
      </trkpt>
      <trkpt lat="43.37045" lon="2.30009">
        <ele>557.22</ele>
        <time>2016-06-09T14:23:34Z</time>
      </trkpt>
      <trkpt lat="43.37041" lon="2.30021">
        <ele>557.7</ele>
        <time>2016-06-09T14:23:44Z</time>
      </trkpt>
      <trkpt lat="43.37035" lon="2.30036">
        <ele>559.14</ele>
        <time>2016-06-09T14:23:54Z</time>
      </trkpt>
      <trkpt lat="43.37029" lon="2.30049">
        <ele>559.62</ele>
        <time>2016-06-09T14:24:03Z</time>
      </trkpt>
      <trkpt lat="43.37023" lon="2.30059">
        <ele>560.59</ele>
        <time>2016-06-09T14:24:12Z</time>
      </trkpt>
      <trkpt lat="43.37019" lon="2.30059">
        <ele>561.07</ele>
        <time>2016-06-09T14:24:21Z</time>
      </trkpt>
      <trkpt lat="43.3702" lon="2.3005">
        <ele>561.07</ele>
        <time>2016-06-09T14:24:29Z</time>
      </trkpt>
      <trkpt lat="43.37024" lon="2.30043">
        <ele>560.59</ele>
        <time>2016-06-09T14:24:40Z</time>
      </trkpt>
      <trkpt lat="43.37022" lon="2.3003">
        <ele>560.59</ele>
        <time>2016-06-09T14:24:50Z</time>
      </trkpt>
      <trkpt lat="43.37018" lon="2.30016">
        <ele>560.59</ele>
        <time>2016-06-09T14:24:58Z</time>
      </trkpt>
      <trkpt lat="43.3701" lon="2.30006">
        <ele>560.59</ele>
        <time>2016-06-09T14:25:07Z</time>
      </trkpt>
      <trkpt lat="43.37" lon="2.30002">
        <ele>560.59</ele>
        <time>2016-06-09T14:25:16Z</time>
      </trkpt>
      <trkpt lat="43.36989" lon="2.29998">
        <ele>561.07</ele>
        <time>2016-06-09T14:25:24Z</time>
      </trkpt>
      <trkpt lat="43.36979" lon="2.29996">
        <ele>561.55</ele>
        <time>2016-06-09T14:25:32Z</time>
      </trkpt>
      <trkpt lat="43.36968" lon="2.29994">
        <ele>562.51</ele>
        <time>2016-06-09T14:25:41Z</time>
      </trkpt>
      <trkpt lat="43.36958" lon="2.29992">
        <ele>562.99</ele>
        <time>2016-06-09T14:25:49Z</time>
      </trkpt>
      <trkpt lat="43.36948" lon="2.29991">
        <ele>562.99</ele>
        <time>2016-06-09T14:25:57Z</time>
      </trkpt>
      <trkpt lat="43.36938" lon="2.2999">
        <ele>563.95</ele>
        <time>2016-06-09T14:26:05Z</time>
      </trkpt>
      <trkpt lat="43.36928" lon="2.29988">
        <ele>564.43</ele>
        <time>2016-06-09T14:26:13Z</time>
      </trkpt>
      <trkpt lat="43.36919" lon="2.29987">
        <ele>564.43</ele>
        <time>2016-06-09T14:26:21Z</time>
      </trkpt>
      <trkpt lat="43.36909" lon="2.29986">
        <ele>564.91</ele>
        <time>2016-06-09T14:26:29Z</time>
      </trkpt>
      <trkpt lat="43.36899" lon="2.29984">
        <ele>565.39</ele>
        <time>2016-06-09T14:26:37Z</time>
      </trkpt>
      <trkpt lat="43.36889" lon="2.29983">
        <ele>565.87</ele>
        <time>2016-06-09T14:26:45Z</time>
      </trkpt>
      <trkpt lat="43.36879" lon="2.29982">
        <ele>565.87</ele>
        <time>2016-06-09T14:26:53Z</time>
      </trkpt>
      <trkpt lat="43.36869" lon="2.29981">
        <ele>566.35</ele>
        <time>2016-06-09T14:27:01Z</time>
      </trkpt>
      <trkpt lat="43.36859" lon="2.2998">
        <ele>567.32</ele>
        <time>2016-06-09T14:27:09Z</time>
      </trkpt>
      <trkpt lat="43.36849" lon="2.29978">
        <ele>567.8</ele>
        <time>2016-06-09T14:27:17Z</time>
      </trkpt>
      <trkpt lat="43.3684" lon="2.29978">
        <ele>568.28</ele>
        <time>2016-06-09T14:27:24Z</time>
      </trkpt>
      <trkpt lat="43.36831" lon="2.29979">
        <ele>568.76</ele>
        <time>2016-06-09T14:27:32Z</time>
      </trkpt>
      <trkpt lat="43.36821" lon="2.29979">
        <ele>568.76</ele>
        <time>2016-06-09T14:27:40Z</time>
      </trkpt>
      <trkpt lat="43.36811" lon="2.29981">
        <ele>569.24</ele>
        <time>2016-06-09T14:27:48Z</time>
      </trkpt>
      <trkpt lat="43.36801" lon="2.29981">
        <ele>569.72</ele>
        <time>2016-06-09T14:27:56Z</time>
      </trkpt>
      <trkpt lat="43.36791" lon="2.29979">
        <ele>570.2</ele>
        <time>2016-06-09T14:28:04Z</time>
      </trkpt>
      <trkpt lat="43.36783" lon="2.29972">
        <ele>571.16</ele>
        <time>2016-06-09T14:28:12Z</time>
      </trkpt>
      <trkpt lat="43.36774" lon="2.29972">
        <ele>572.12</ele>
        <time>2016-06-09T14:28:21Z</time>
      </trkpt>
      <trkpt lat="43.36763" lon="2.29973">
        <ele>574.04</ele>
        <time>2016-06-09T14:28:31Z</time>
      </trkpt>
      <trkpt lat="43.36753" lon="2.29978">
        <ele>574.53</ele>
        <time>2016-06-09T14:28:41Z</time>
      </trkpt>
      <trkpt lat="43.36741" lon="2.29982">
        <ele>574.53</ele>
        <time>2016-06-09T14:28:55Z</time>
      </trkpt>
      <trkpt lat="43.36729" lon="2.29985">
        <ele>574.53</ele>
        <time>2016-06-09T14:29:05Z</time>
      </trkpt>
      <trkpt lat="43.3672" lon="2.29993">
        <ele>576.45</ele>
        <time>2016-06-09T14:29:19Z</time>
      </trkpt>
      <trkpt lat="43.36711" lon="2.3">
        <ele>579.33</ele>
        <time>2016-06-09T14:29:33Z</time>
      </trkpt>
      <trkpt lat="43.367" lon="2.30003">
        <ele>580.29</ele>
        <time>2016-06-09T14:29:45Z</time>
      </trkpt>
      <trkpt lat="43.36691" lon="2.30005">
        <ele>580.77</ele>
        <time>2016-06-09T14:29:55Z</time>
      </trkpt>
      <trkpt lat="43.36691" lon="2.30011">
        <ele>580.29</ele>
        <time>2016-06-09T14:30:44Z</time>
      </trkpt>
      <trkpt lat="43.36694" lon="2.30024">
        <ele>579.81</ele>
        <time>2016-06-09T14:31:04Z</time>
      </trkpt>
      <trkpt lat="43.3669" lon="2.30037">
        <ele>579.81</ele>
        <time>2016-06-09T14:31:38Z</time>
      </trkpt>
      <trkpt lat="43.36692" lon="2.30036">
        <ele>579.33</ele>
        <time>2016-06-09T14:32:04Z</time>
      </trkpt>
      <trkpt lat="43.36692" lon="2.3003">
        <ele>575.97</ele>
        <time>2016-06-09T14:36:03Z</time>
      </trkpt>
      <trkpt lat="43.36696" lon="2.30035">
        <ele>575.49</ele>
        <time>2016-06-09T14:37:54Z</time>
      </trkpt>
      <trkpt lat="43.367" lon="2.30046">
        <ele>575.49</ele>
        <time>2016-06-09T14:38:04Z</time>
      </trkpt>
      <trkpt lat="43.36704" lon="2.30059">
        <ele>575.49</ele>
        <time>2016-06-09T14:38:13Z</time>
      </trkpt>
      <trkpt lat="43.36707" lon="2.30072">
        <ele>574.04</ele>
        <time>2016-06-09T14:38:24Z</time>
      </trkpt>
      <trkpt lat="43.36712" lon="2.30083">
        <ele>574.04</ele>
        <time>2016-06-09T14:38:37Z</time>
      </trkpt>
      <trkpt lat="43.36717" lon="2.30095">
        <ele>574.04</ele>
        <time>2016-06-09T14:38:47Z</time>
      </trkpt>
      <trkpt lat="43.3672" lon="2.30107">
        <ele>574.04</ele>
        <time>2016-06-09T14:38:56Z</time>
      </trkpt>
      <trkpt lat="43.36724" lon="2.3012">
        <ele>575.01</ele>
        <time>2016-06-09T14:39:06Z</time>
      </trkpt>
      <trkpt lat="43.36728" lon="2.30132">
        <ele>575.01</ele>
        <time>2016-06-09T14:39:15Z</time>
      </trkpt>
      <trkpt lat="43.36731" lon="2.30143">
        <ele>575.49</ele>
        <time>2016-06-09T14:39:29Z</time>
      </trkpt>
      <trkpt lat="43.36734" lon="2.30156">
        <ele>575.97</ele>
        <time>2016-06-09T14:39:39Z</time>
      </trkpt>
      <trkpt lat="43.3674" lon="2.30168">
        <ele>576.93</ele>
        <time>2016-06-09T14:40:29Z</time>
      </trkpt>
      <trkpt lat="43.36746" lon="2.30174">
        <ele>576.93</ele>
        <time>2016-06-09T14:40:57Z</time>
      </trkpt>
      <trkpt lat="43.36745" lon="2.30188">
        <ele>577.41</ele>
        <time>2016-06-09T14:41:46Z</time>
      </trkpt>
      <trkpt lat="43.36748" lon="2.30199">
        <ele>578.37</ele>
        <time>2016-06-09T14:41:57Z</time>
      </trkpt>
      <trkpt lat="43.3675" lon="2.30199">
        <ele>578.37</ele>
        <time>2016-06-09T14:43:37Z</time>
      </trkpt>
      <trkpt lat="43.36744" lon="2.3019">
        <ele>576.93</ele>
        <time>2016-06-09T14:43:48Z</time>
      </trkpt>
      <trkpt lat="43.36747" lon="2.30179">
        <ele>575.97</ele>
        <time>2016-06-09T14:43:58Z</time>
      </trkpt>
      <trkpt lat="43.36756" lon="2.30177">
        <ele>575.97</ele>
        <time>2016-06-09T14:44:08Z</time>
      </trkpt>
      <trkpt lat="43.36768" lon="2.30173">
        <ele>577.89</ele>
        <time>2016-06-09T14:44:19Z</time>
      </trkpt>
      <trkpt lat="43.36778" lon="2.30173">
        <ele>578.37</ele>
        <time>2016-06-09T14:44:31Z</time>
      </trkpt>
      <trkpt lat="43.36786" lon="2.3018">
        <ele>579.81</ele>
        <time>2016-06-09T14:44:43Z</time>
      </trkpt>
      <trkpt lat="43.36793" lon="2.3019">
        <ele>581.25</ele>
        <time>2016-06-09T14:44:57Z</time>
      </trkpt>
      <trkpt lat="43.36798" lon="2.30201">
        <ele>583.18</ele>
        <time>2016-06-09T14:45:11Z</time>
      </trkpt>
      <trkpt lat="43.36802" lon="2.30211">
        <ele>584.62</ele>
        <time>2016-06-09T14:45:23Z</time>
      </trkpt>
      <trkpt lat="43.36812" lon="2.30217">
        <ele>585.58</ele>
        <time>2016-06-09T14:45:33Z</time>
      </trkpt>
      <trkpt lat="43.36821" lon="2.30225">
        <ele>586.06</ele>
        <time>2016-06-09T14:45:44Z</time>
      </trkpt>
      <trkpt lat="43.36828" lon="2.30234">
        <ele>587.02</ele>
        <time>2016-06-09T14:45:54Z</time>
      </trkpt>
      <trkpt lat="43.36833" lon="2.30246">
        <ele>587.98</ele>
        <time>2016-06-09T14:46:05Z</time>
      </trkpt>
      <trkpt lat="43.36834" lon="2.30258">
        <ele>589.43</ele>
        <time>2016-06-09T14:46:15Z</time>
      </trkpt>
      <trkpt lat="43.36832" lon="2.3027">
        <ele>590.87</ele>
        <time>2016-06-09T14:46:27Z</time>
      </trkpt>
      <trkpt lat="43.36834" lon="2.30285">
        <ele>591.83</ele>
        <time>2016-06-09T14:46:40Z</time>
      </trkpt>
      <trkpt lat="43.36838" lon="2.30301">
        <ele>592.79</ele>
        <time>2016-06-09T14:46:53Z</time>
      </trkpt>
      <trkpt lat="43.36842" lon="2.30315">
        <ele>595.19</ele>
        <time>2016-06-09T14:47:05Z</time>
      </trkpt>
      <trkpt lat="43.36846" lon="2.30329">
        <ele>597.12</ele>
        <time>2016-06-09T14:47:17Z</time>
      </trkpt>
      <trkpt lat="43.36848" lon="2.30341">
        <ele>598.08</ele>
        <time>2016-06-09T14:47:28Z</time>
      </trkpt>
      <trkpt lat="43.36847" lon="2.30355">
        <ele>599.52</ele>
        <time>2016-06-09T14:47:39Z</time>
      </trkpt>
      <trkpt lat="43.36844" lon="2.30365">
        <ele>600.96</ele>
        <time>2016-06-09T14:47:51Z</time>
      </trkpt>
      <trkpt lat="43.3684" lon="2.30381">
        <ele>601.92</ele>
        <time>2016-06-09T14:48:02Z</time>
      </trkpt>
      <trkpt lat="43.36836" lon="2.30394">
        <ele>602.88</ele>
        <time>2016-06-09T14:48:14Z</time>
      </trkpt>
      <trkpt lat="43.36835" lon="2.30409">
        <ele>604.33</ele>
        <time>2016-06-09T14:48:27Z</time>
      </trkpt>
      <trkpt lat="43.36837" lon="2.30425">
        <ele>605.77</ele>
        <time>2016-06-09T14:48:38Z</time>
      </trkpt>
      <trkpt lat="43.36838" lon="2.30439">
        <ele>607.21</ele>
        <time>2016-06-09T14:48:49Z</time>
      </trkpt>
      <trkpt lat="43.36841" lon="2.30449">
        <ele>608.65</ele>
        <time>2016-06-09T14:49:03Z</time>
      </trkpt>
      <trkpt lat="43.36845" lon="2.30462">
        <ele>611.06</ele>
        <time>2016-06-09T14:49:18Z</time>
      </trkpt>
      <trkpt lat="43.36842" lon="2.30474">
        <ele>612.02</ele>
        <time>2016-06-09T14:49:30Z</time>
      </trkpt>
      <trkpt lat="43.36846" lon="2.30488">
        <ele>613.46</ele>
        <time>2016-06-09T14:49:41Z</time>
      </trkpt>
      <trkpt lat="43.36852" lon="2.30498">
        <ele>614.9</ele>
        <time>2016-06-09T14:49:54Z</time>
      </trkpt>
      <trkpt lat="43.36856" lon="2.30511">
        <ele>615.86</ele>
        <time>2016-06-09T14:50:07Z</time>
      </trkpt>
      <trkpt lat="43.36854" lon="2.30522">
        <ele>616.82</ele>
        <time>2016-06-09T14:50:18Z</time>
      </trkpt>
      <trkpt lat="43.36852" lon="2.30535">
        <ele>617.3</ele>
        <time>2016-06-09T14:50:28Z</time>
      </trkpt>
      <trkpt lat="43.36852" lon="2.3055">
        <ele>617.78</ele>
        <time>2016-06-09T14:50:38Z</time>
      </trkpt>
      <trkpt lat="43.36854" lon="2.30564">
        <ele>618.75</ele>
        <time>2016-06-09T14:50:47Z</time>
      </trkpt>
      <trkpt lat="43.36855" lon="2.30579">
        <ele>619.23</ele>
        <time>2016-06-09T14:50:56Z</time>
      </trkpt>
      <trkpt lat="43.36858" lon="2.30592">
        <ele>620.19</ele>
        <time>2016-06-09T14:51:04Z</time>
      </trkpt>
      <trkpt lat="43.36859" lon="2.30605">
        <ele>621.63</ele>
        <time>2016-06-09T14:51:14Z</time>
      </trkpt>
      <trkpt lat="43.36862" lon="2.30617">
        <ele>622.59</ele>
        <time>2016-06-09T14:51:24Z</time>
      </trkpt>
      <trkpt lat="43.36866" lon="2.30629">
        <ele>624.03</ele>
        <time>2016-06-09T14:51:33Z</time>
      </trkpt>
      <trkpt lat="43.36868" lon="2.30641">
        <ele>624.51</ele>
        <time>2016-06-09T14:51:42Z</time>
      </trkpt>
      <trkpt lat="43.36869" lon="2.30654">
        <ele>624.99</ele>
        <time>2016-06-09T14:51:51Z</time>
      </trkpt>
      <trkpt lat="43.36877" lon="2.30664">
        <ele>626.92</ele>
        <time>2016-06-09T14:52:03Z</time>
      </trkpt>
      <trkpt lat="43.36885" lon="2.30676">
        <ele>628.36</ele>
        <time>2016-06-09T14:52:15Z</time>
      </trkpt>
      <trkpt lat="43.36889" lon="2.30687">
        <ele>629.32</ele>
        <time>2016-06-09T14:52:25Z</time>
      </trkpt>
      <trkpt lat="43.36892" lon="2.30699">
        <ele>630.28</ele>
        <time>2016-06-09T14:52:35Z</time>
      </trkpt>
      <trkpt lat="43.36892" lon="2.30711">
        <ele>630.76</ele>
        <time>2016-06-09T14:52:50Z</time>
      </trkpt>
      <trkpt lat="43.36892" lon="2.30723">
        <ele>630.76</ele>
        <time>2016-06-09T14:52:58Z</time>
      </trkpt>
      <trkpt lat="43.36892" lon="2.30736">
        <ele>630.76</ele>
        <time>2016-06-09T14:53:06Z</time>
      </trkpt>
      <trkpt lat="43.36892" lon="2.30749">
        <ele>631.24</ele>
        <time>2016-06-09T14:53:14Z</time>
      </trkpt>
      <trkpt lat="43.36893" lon="2.30762">
        <ele>632.2</ele>
        <time>2016-06-09T14:53:22Z</time>
      </trkpt>
      <trkpt lat="43.36893" lon="2.30775">
        <ele>632.2</ele>
        <time>2016-06-09T14:53:30Z</time>
      </trkpt>
      <trkpt lat="43.36893" lon="2.30791">
        <ele>631.72</ele>
        <time>2016-06-09T14:53:39Z</time>
      </trkpt>
      <trkpt lat="43.36893" lon="2.30804">
        <ele>631.72</ele>
        <time>2016-06-09T14:53:47Z</time>
      </trkpt>
      <trkpt lat="43.36893" lon="2.30818">
        <ele>631.72</ele>
        <time>2016-06-09T14:53:55Z</time>
      </trkpt>
      <trkpt lat="43.36894" lon="2.30832">
        <ele>631.72</ele>
        <time>2016-06-09T14:54:02Z</time>
      </trkpt>
      <trkpt lat="43.36894" lon="2.30845">
        <ele>632.2</ele>
        <time>2016-06-09T14:54:10Z</time>
      </trkpt>
      <trkpt lat="43.36894" lon="2.30858">
        <ele>632.2</ele>
        <time>2016-06-09T14:54:18Z</time>
      </trkpt>
      <trkpt lat="43.36894" lon="2.30872">
        <ele>632.2</ele>
        <time>2016-06-09T14:54:28Z</time>
      </trkpt>
      <trkpt lat="43.36894" lon="2.30885">
        <ele>632.2</ele>
        <time>2016-06-09T14:54:36Z</time>
      </trkpt>
      <trkpt lat="43.36895" lon="2.30899">
        <ele>630.76</ele>
        <time>2016-06-09T14:54:45Z</time>
      </trkpt>
      <trkpt lat="43.36897" lon="2.30913">
        <ele>630.28</ele>
        <time>2016-06-09T14:54:53Z</time>
      </trkpt>
      <trkpt lat="43.36899" lon="2.30926">
        <ele>629.8</ele>
        <time>2016-06-09T14:55:01Z</time>
      </trkpt>
      <trkpt lat="43.36901" lon="2.30941">
        <ele>629.8</ele>
        <time>2016-06-09T14:55:09Z</time>
      </trkpt>
      <trkpt lat="43.36903" lon="2.30955">
        <ele>629.8</ele>
        <time>2016-06-09T14:55:17Z</time>
      </trkpt>
      <trkpt lat="43.36905" lon="2.30968">
        <ele>629.8</ele>
        <time>2016-06-09T14:55:25Z</time>
      </trkpt>
      <trkpt lat="43.36905" lon="2.30982">
        <ele>629.8</ele>
        <time>2016-06-09T14:55:33Z</time>
      </trkpt>
      <trkpt lat="43.36907" lon="2.30995">
        <ele>629.8</ele>
        <time>2016-06-09T14:55:41Z</time>
      </trkpt>
      <trkpt lat="43.36908" lon="2.31009">
        <ele>629.32</ele>
        <time>2016-06-09T14:55:49Z</time>
      </trkpt>
      <trkpt lat="43.36909" lon="2.31022">
        <ele>629.32</ele>
        <time>2016-06-09T14:55:57Z</time>
      </trkpt>
      <trkpt lat="43.3691" lon="2.31037">
        <ele>629.32</ele>
        <time>2016-06-09T14:56:06Z</time>
      </trkpt>
      <trkpt lat="43.36911" lon="2.3105">
        <ele>628.84</ele>
        <time>2016-06-09T14:56:14Z</time>
      </trkpt>
      <trkpt lat="43.36912" lon="2.31064">
        <ele>628.84</ele>
        <time>2016-06-09T14:56:22Z</time>
      </trkpt>
      <trkpt lat="43.36913" lon="2.31078">
        <ele>628.84</ele>
        <time>2016-06-09T14:56:30Z</time>
      </trkpt>
      <trkpt lat="43.36914" lon="2.31091">
        <ele>628.84</ele>
        <time>2016-06-09T14:56:38Z</time>
      </trkpt>
      <trkpt lat="43.36915" lon="2.31105">
        <ele>628.84</ele>
        <time>2016-06-09T14:56:46Z</time>
      </trkpt>
      <trkpt lat="43.36917" lon="2.31119">
        <ele>629.8</ele>
        <time>2016-06-09T14:56:54Z</time>
      </trkpt>
      <trkpt lat="43.36919" lon="2.31132">
        <ele>629.8</ele>
        <time>2016-06-09T14:57:02Z</time>
      </trkpt>
      <trkpt lat="43.36921" lon="2.31146">
        <ele>630.28</ele>
        <time>2016-06-09T14:57:10Z</time>
      </trkpt>
      <trkpt lat="43.36923" lon="2.3116">
        <ele>630.28</ele>
        <time>2016-06-09T14:57:18Z</time>
      </trkpt>
      <trkpt lat="43.36925" lon="2.31173">
        <ele>630.76</ele>
        <time>2016-06-09T14:57:26Z</time>
      </trkpt>
      <trkpt lat="43.36928" lon="2.31186">
        <ele>631.24</ele>
        <time>2016-06-09T14:57:34Z</time>
      </trkpt>
      <trkpt lat="43.36932" lon="2.31199">
        <ele>631.72</ele>
        <time>2016-06-09T14:57:42Z</time>
      </trkpt>
      <trkpt lat="43.36936" lon="2.31212">
        <ele>631.72</ele>
        <time>2016-06-09T14:57:50Z</time>
      </trkpt>
      <trkpt lat="43.3694" lon="2.31223">
        <ele>632.2</ele>
        <time>2016-06-09T14:57:58Z</time>
      </trkpt>
      <trkpt lat="43.36946" lon="2.31234">
        <ele>632.2</ele>
        <time>2016-06-09T14:58:06Z</time>
      </trkpt>
      <trkpt lat="43.36953" lon="2.31243">
        <ele>632.68</ele>
        <time>2016-06-09T14:58:14Z</time>
      </trkpt>
      <trkpt lat="43.36962" lon="2.31252">
        <ele>633.17</ele>
        <time>2016-06-09T14:58:22Z</time>
      </trkpt>
      <trkpt lat="43.36971" lon="2.3126">
        <ele>633.65</ele>
        <time>2016-06-09T14:58:30Z</time>
      </trkpt>
      <trkpt lat="43.36979" lon="2.31267">
        <ele>633.65</ele>
        <time>2016-06-09T14:58:38Z</time>
      </trkpt>
      <trkpt lat="43.36988" lon="2.31275">
        <ele>633.65</ele>
        <time>2016-06-09T14:58:46Z</time>
      </trkpt>
      <trkpt lat="43.36995" lon="2.31285">
        <ele>634.13</ele>
        <time>2016-06-09T14:58:54Z</time>
      </trkpt>
      <trkpt lat="43.37004" lon="2.31293">
        <ele>634.13</ele>
        <time>2016-06-09T14:59:02Z</time>
      </trkpt>
      <trkpt lat="43.37013" lon="2.31299">
        <ele>634.13</ele>
        <time>2016-06-09T14:59:10Z</time>
      </trkpt>
      <trkpt lat="43.37024" lon="2.31301">
        <ele>633.65</ele>
        <time>2016-06-09T14:59:18Z</time>
      </trkpt>
      <trkpt lat="43.37034" lon="2.31298">
        <ele>633.65</ele>
        <time>2016-06-09T14:59:26Z</time>
      </trkpt>
      <trkpt lat="43.37044" lon="2.31296">
        <ele>633.65</ele>
        <time>2016-06-09T14:59:35Z</time>
      </trkpt>
      <trkpt lat="43.37054" lon="2.31293">
        <ele>634.61</ele>
        <time>2016-06-09T14:59:43Z</time>
      </trkpt>
      <trkpt lat="43.37063" lon="2.3129">
        <ele>633.65</ele>
        <time>2016-06-09T14:59:51Z</time>
      </trkpt>
      <trkpt lat="43.37074" lon="2.31292">
        <ele>633.65</ele>
        <time>2016-06-09T14:59:59Z</time>
      </trkpt>
      <trkpt lat="43.3708" lon="2.313">
        <ele>632.68</ele>
        <time>2016-06-09T15:00:09Z</time>
      </trkpt>
      <trkpt lat="43.3709" lon="2.31299">
        <ele>632.68</ele>
        <time>2016-06-09T15:00:21Z</time>
      </trkpt>
      <trkpt lat="43.371" lon="2.31298">
        <ele>632.2</ele>
        <time>2016-06-09T15:00:29Z</time>
      </trkpt>
      <trkpt lat="43.3711" lon="2.31297">
        <ele>633.65</ele>
        <time>2016-06-09T15:00:37Z</time>
      </trkpt>
      <trkpt lat="43.3712" lon="2.31295">
        <ele>633.65</ele>
        <time>2016-06-09T15:00:45Z</time>
      </trkpt>
      <trkpt lat="43.37128" lon="2.31293">
        <ele>634.13</ele>
        <time>2016-06-09T15:00:54Z</time>
      </trkpt>
      <trkpt lat="43.37138" lon="2.31291">
        <ele>635.09</ele>
        <time>2016-06-09T15:01:02Z</time>
      </trkpt>
      <trkpt lat="43.37148" lon="2.31289">
        <ele>635.09</ele>
        <time>2016-06-09T15:01:10Z</time>
      </trkpt>
      <trkpt lat="43.37158" lon="2.31288">
        <ele>635.57</ele>
        <time>2016-06-09T15:01:18Z</time>
      </trkpt>
      <trkpt lat="43.37168" lon="2.31286">
        <ele>636.53</ele>
        <time>2016-06-09T15:01:26Z</time>
      </trkpt>
      <trkpt lat="43.37177" lon="2.31285">
        <ele>637.49</ele>
        <time>2016-06-09T15:01:34Z</time>
      </trkpt>
      <trkpt lat="43.37187" lon="2.31283">
        <ele>637.97</ele>
        <time>2016-06-09T15:01:42Z</time>
      </trkpt>
      <trkpt lat="43.37196" lon="2.3128">
        <ele>638.45</ele>
        <time>2016-06-09T15:01:50Z</time>
      </trkpt>
      <trkpt lat="43.37204" lon="2.31271">
        <ele>638.45</ele>
        <time>2016-06-09T15:01:59Z</time>
      </trkpt>
      <trkpt lat="43.37209" lon="2.31261">
        <ele>638.45</ele>
        <time>2016-06-09T15:02:06Z</time>
      </trkpt>
      <trkpt lat="43.37214" lon="2.31251">
        <ele>638.45</ele>
        <time>2016-06-09T15:02:13Z</time>
      </trkpt>
      <trkpt lat="43.3722" lon="2.31239">
        <ele>638.45</ele>
        <time>2016-06-09T15:02:21Z</time>
      </trkpt>
      <trkpt lat="43.37225" lon="2.31228">
        <ele>638.93</ele>
        <time>2016-06-09T15:02:29Z</time>
      </trkpt>
      <trkpt lat="43.37231" lon="2.31217">
        <ele>638.93</ele>
        <time>2016-06-09T15:02:37Z</time>
      </trkpt>
      <trkpt lat="43.37236" lon="2.31206">
        <ele>638.93</ele>
        <time>2016-06-09T15:02:44Z</time>
      </trkpt>
      <trkpt lat="43.37242" lon="2.31196">
        <ele>638.93</ele>
        <time>2016-06-09T15:02:51Z</time>
      </trkpt>
      <trkpt lat="43.37248" lon="2.31185">
        <ele>638.93</ele>
        <time>2016-06-09T15:02:59Z</time>
      </trkpt>
      <trkpt lat="43.37254" lon="2.31175">
        <ele>638.93</ele>
        <time>2016-06-09T15:03:06Z</time>
      </trkpt>
      <trkpt lat="43.3726" lon="2.31166">
        <ele>638.93</ele>
        <time>2016-06-09T15:03:13Z</time>
      </trkpt>
      <trkpt lat="43.37267" lon="2.31158">
        <ele>638.93</ele>
        <time>2016-06-09T15:03:20Z</time>
      </trkpt>
      <trkpt lat="43.37276" lon="2.31149">
        <ele>638.45</ele>
        <time>2016-06-09T15:03:28Z</time>
      </trkpt>
      <trkpt lat="43.37284" lon="2.31142">
        <ele>638.93</ele>
        <time>2016-06-09T15:03:37Z</time>
      </trkpt>
      <trkpt lat="43.3729" lon="2.31133">
        <ele>638.93</ele>
        <time>2016-06-09T15:03:46Z</time>
      </trkpt>
      <trkpt lat="43.37296" lon="2.31124">
        <ele>638.93</ele>
        <time>2016-06-09T15:04:34Z</time>
      </trkpt>
      <trkpt lat="43.37303" lon="2.31116">
        <ele>638.93</ele>
        <time>2016-06-09T15:04:43Z</time>
      </trkpt>
      <trkpt lat="43.3731" lon="2.31106">
        <ele>637.49</ele>
        <time>2016-06-09T15:04:51Z</time>
      </trkpt>
      <trkpt lat="43.37319" lon="2.31096">
        <ele>637.49</ele>
        <time>2016-06-09T15:05:01Z</time>
      </trkpt>
      <trkpt lat="43.37326" lon="2.31086">
        <ele>637.01</ele>
        <time>2016-06-09T15:05:10Z</time>
      </trkpt>
      <trkpt lat="43.37333" lon="2.31074">
        <ele>637.01</ele>
        <time>2016-06-09T15:05:19Z</time>
      </trkpt>
      <trkpt lat="43.3734" lon="2.31061">
        <ele>636.53</ele>
        <time>2016-06-09T15:05:27Z</time>
      </trkpt>
      <trkpt lat="43.37345" lon="2.31049">
        <ele>636.53</ele>
        <time>2016-06-09T15:05:35Z</time>
      </trkpt>
      <trkpt lat="43.3735" lon="2.31035">
        <ele>636.05</ele>
        <time>2016-06-09T15:05:43Z</time>
      </trkpt>
      <trkpt lat="43.37354" lon="2.31023">
        <ele>634.61</ele>
        <time>2016-06-09T15:05:51Z</time>
      </trkpt>
      <trkpt lat="43.37355" lon="2.31008">
        <ele>633.65</ele>
        <time>2016-06-09T15:05:59Z</time>
      </trkpt>
      <trkpt lat="43.37356" lon="2.30994">
        <ele>631.72</ele>
        <time>2016-06-09T15:06:07Z</time>
      </trkpt>
      <trkpt lat="43.37356" lon="2.3098">
        <ele>630.28</ele>
        <time>2016-06-09T15:06:15Z</time>
      </trkpt>
      <trkpt lat="43.37357" lon="2.30967">
        <ele>628.84</ele>
        <time>2016-06-09T15:06:23Z</time>
      </trkpt>
      <trkpt lat="43.37358" lon="2.30952">
        <ele>627.4</ele>
        <time>2016-06-09T15:06:31Z</time>
      </trkpt>
      <trkpt lat="43.37355" lon="2.30939">
        <ele>626.44</ele>
        <time>2016-06-09T15:06:40Z</time>
      </trkpt>
      <trkpt lat="43.3735" lon="2.30929">
        <ele>624.99</ele>
        <time>2016-06-09T15:06:49Z</time>
      </trkpt>
      <trkpt lat="43.37344" lon="2.3092">
        <ele>623.55</ele>
        <time>2016-06-09T15:06:58Z</time>
      </trkpt>
      <trkpt lat="43.37335" lon="2.30912">
        <ele>621.15</ele>
        <time>2016-06-09T15:07:07Z</time>
      </trkpt>
      <trkpt lat="43.37327" lon="2.30904">
        <ele>619.71</ele>
        <time>2016-06-09T15:07:16Z</time>
      </trkpt>
      <trkpt lat="43.37319" lon="2.30896">
        <ele>617.3</ele>
        <time>2016-06-09T15:07:25Z</time>
      </trkpt>
      <trkpt lat="43.37312" lon="2.30888">
        <ele>615.86</ele>
        <time>2016-06-09T15:07:34Z</time>
      </trkpt>
      <trkpt lat="43.37304" lon="2.30878">
        <ele>613.94</ele>
        <time>2016-06-09T15:07:43Z</time>
      </trkpt>
      <trkpt lat="43.37303" lon="2.30867">
        <ele>613.46</ele>
        <time>2016-06-09T15:07:54Z</time>
      </trkpt>
      <trkpt lat="43.37306" lon="2.30857">
        <ele>612.5</ele>
        <time>2016-06-09T15:08:11Z</time>
      </trkpt>
      <trkpt lat="43.37313" lon="2.30849">
        <ele>612.5</ele>
        <time>2016-06-09T15:08:33Z</time>
      </trkpt>
      <trkpt lat="43.3732" lon="2.30843">
        <ele>612.5</ele>
        <time>2016-06-09T15:08:43Z</time>
      </trkpt>
      <trkpt lat="43.37327" lon="2.30835">
        <ele>613.46</ele>
        <time>2016-06-09T15:08:51Z</time>
      </trkpt>
      <trkpt lat="43.37336" lon="2.30827">
        <ele>613.94</ele>
        <time>2016-06-09T15:09:02Z</time>
      </trkpt>
      <trkpt lat="43.37344" lon="2.30821">
        <ele>614.42</ele>
        <time>2016-06-09T15:09:11Z</time>
      </trkpt>
      <trkpt lat="43.37353" lon="2.30818">
        <ele>614.42</ele>
        <time>2016-06-09T15:09:23Z</time>
      </trkpt>
      <trkpt lat="43.37363" lon="2.30821">
        <ele>614.9</ele>
        <time>2016-06-09T15:09:35Z</time>
      </trkpt>
      <trkpt lat="43.37371" lon="2.30823">
        <ele>616.34</ele>
        <time>2016-06-09T15:09:56Z</time>
      </trkpt>
      <trkpt lat="43.37379" lon="2.30821">
        <ele>614.9</ele>
        <time>2016-06-09T15:10:14Z</time>
      </trkpt>
      <trkpt lat="43.37387" lon="2.30829">
        <ele>613.46</ele>
        <time>2016-06-09T15:10:23Z</time>
      </trkpt>
      <trkpt lat="43.37394" lon="2.30837">
        <ele>612.98</ele>
        <time>2016-06-09T15:10:31Z</time>
      </trkpt>
      <trkpt lat="43.37402" lon="2.30845">
        <ele>612.02</ele>
        <time>2016-06-09T15:10:40Z</time>
      </trkpt>
      <trkpt lat="43.37409" lon="2.30854">
        <ele>610.57</ele>
        <time>2016-06-09T15:10:49Z</time>
      </trkpt>
      <trkpt lat="43.37417" lon="2.30861">
        <ele>609.13</ele>
        <time>2016-06-09T15:10:59Z</time>
      </trkpt>
      <trkpt lat="43.37427" lon="2.3087">
        <ele>607.69</ele>
        <time>2016-06-09T15:11:11Z</time>
      </trkpt>
      <trkpt lat="43.37436" lon="2.30879">
        <ele>606.73</ele>
        <time>2016-06-09T15:11:21Z</time>
      </trkpt>
      <trkpt lat="43.37446" lon="2.30887">
        <ele>604.81</ele>
        <time>2016-06-09T15:11:32Z</time>
      </trkpt>
      <trkpt lat="43.37456" lon="2.30893">
        <ele>603.36</ele>
        <time>2016-06-09T15:11:51Z</time>
      </trkpt>
      <trkpt lat="43.37471" lon="2.30912">
        <ele>601.92</ele>
        <time>2016-06-09T15:12:34Z</time>
      </trkpt>
      <trkpt lat="43.37481" lon="2.30914">
        <ele>601.44</ele>
        <time>2016-06-09T15:12:47Z</time>
      </trkpt>
      <trkpt lat="43.37481" lon="2.30914">
        <ele>600.48</ele>
        <time>2016-06-09T15:13:02Z</time>
      </trkpt>
      <trkpt lat="43.37473" lon="2.30912">
        <ele>601.92</ele>
        <time>2016-06-09T15:13:14Z</time>
      </trkpt>
      <trkpt lat="43.37467" lon="2.30906">
        <ele>603.85</ele>
        <time>2016-06-09T15:13:43Z</time>
      </trkpt>
      <trkpt lat="43.37467" lon="2.30911">
        <ele>604.33</ele>
        <time>2016-06-09T15:14:13Z</time>
      </trkpt>
      <trkpt lat="43.37479" lon="2.30913">
        <ele>601.92</ele>
        <time>2016-06-09T15:14:25Z</time>
      </trkpt>
      <trkpt lat="43.37489" lon="2.30918">
        <ele>600.96</ele>
        <time>2016-06-09T15:14:36Z</time>
      </trkpt>
      <trkpt lat="43.37501" lon="2.30922">
        <ele>600</ele>
        <time>2016-06-09T15:14:46Z</time>
      </trkpt>
      <trkpt lat="43.37511" lon="2.30925">
        <ele>599.52</ele>
        <time>2016-06-09T15:14:56Z</time>
      </trkpt>
      <trkpt lat="43.37521" lon="2.30928">
        <ele>599.52</ele>
        <time>2016-06-09T15:15:05Z</time>
      </trkpt>
      <trkpt lat="43.3753" lon="2.30932">
        <ele>598.56</ele>
        <time>2016-06-09T15:15:14Z</time>
      </trkpt>
      <trkpt lat="43.3754" lon="2.30934">
        <ele>598.08</ele>
        <time>2016-06-09T15:15:23Z</time>
      </trkpt>
      <trkpt lat="43.37552" lon="2.30932">
        <ele>597.6</ele>
        <time>2016-06-09T15:15:32Z</time>
      </trkpt>
      <trkpt lat="43.37563" lon="2.30933">
        <ele>597.12</ele>
        <time>2016-06-09T15:15:42Z</time>
      </trkpt>
      <trkpt lat="43.37575" lon="2.30932">
        <ele>595.19</ele>
        <time>2016-06-09T15:16:07Z</time>
      </trkpt>
      <trkpt lat="43.37584" lon="2.30926">
        <ele>591.35</ele>
        <time>2016-06-09T15:16:19Z</time>
      </trkpt>
      <trkpt lat="43.37594" lon="2.30916">
        <ele>588.95</ele>
        <time>2016-06-09T15:16:29Z</time>
      </trkpt>
      <trkpt lat="43.37602" lon="2.30908">
        <ele>587.98</ele>
        <time>2016-06-09T15:16:39Z</time>
      </trkpt>
      <trkpt lat="43.37613" lon="2.30904">
        <ele>585.58</ele>
        <time>2016-06-09T15:16:51Z</time>
      </trkpt>
      <trkpt lat="43.37624" lon="2.30903">
        <ele>583.66</ele>
        <time>2016-06-09T15:17:06Z</time>
      </trkpt>
      <trkpt lat="43.37635" lon="2.30904">
        <ele>581.25</ele>
        <time>2016-06-09T15:17:19Z</time>
      </trkpt>
      <trkpt lat="43.37645" lon="2.30902">
        <ele>578.37</ele>
        <time>2016-06-09T15:17:32Z</time>
      </trkpt>
      <trkpt lat="43.37654" lon="2.30898">
        <ele>575.49</ele>
        <time>2016-06-09T15:17:44Z</time>
      </trkpt>
      <trkpt lat="43.37664" lon="2.30898">
        <ele>573.08</ele>
        <time>2016-06-09T15:17:59Z</time>
      </trkpt>
      <trkpt lat="43.37673" lon="2.309">
        <ele>570.2</ele>
        <time>2016-06-09T15:18:12Z</time>
      </trkpt>
      <trkpt lat="43.37683" lon="2.30908">
        <ele>567.8</ele>
        <time>2016-06-09T15:18:25Z</time>
      </trkpt>
      <trkpt lat="43.37692" lon="2.30918">
        <ele>565.87</ele>
        <time>2016-06-09T15:18:36Z</time>
      </trkpt>
      <trkpt lat="43.37703" lon="2.30925">
        <ele>563.95</ele>
        <time>2016-06-09T15:18:50Z</time>
      </trkpt>
      <trkpt lat="43.37715" lon="2.30931">
        <ele>561.55</ele>
        <time>2016-06-09T15:19:03Z</time>
      </trkpt>
      <trkpt lat="43.3773" lon="2.3094">
        <ele>558.66</ele>
        <time>2016-06-09T15:19:25Z</time>
      </trkpt>
      <trkpt lat="43.37744" lon="2.30956">
        <ele>555.3</ele>
        <time>2016-06-09T15:19:41Z</time>
      </trkpt>
      <trkpt lat="43.37755" lon="2.30964">
        <ele>554.34</ele>
        <time>2016-06-09T15:19:50Z</time>
      </trkpt>
      <trkpt lat="43.3776" lon="2.30963">
        <ele>554.34</ele>
        <time>2016-06-09T15:20:07Z</time>
      </trkpt>
      <trkpt lat="43.37769" lon="2.30969">
        <ele>555.78</ele>
        <time>2016-06-09T15:20:18Z</time>
      </trkpt>
      <trkpt lat="43.37775" lon="2.30983">
        <ele>555.78</ele>
        <time>2016-06-09T15:20:30Z</time>
      </trkpt>
    </trkseg>
  </trk>
</gpx>